Time,TemperatureF,DewpointF,PressureIn,WindDirection,WindDirectionDegrees,WindSpeedMPH,WindSpeedGustMPH,Humidity,HourlyPrecipIn,Conditions,Clouds,dailyrainin,SoftwareType,DateUTC
2013-02-05 00:00:00,16.3,4.9,29.94,SSE,158,0.0,0.0,60,0.00,,CLR,0.00,VWS V14.01,2013-02-05 06:00:00,
2013-02-05 00:05:00,16.3,4.9,29.94,SSE,158,0.0,0.0,60,0.00,,CLR,0.00,VWS V14.01,2013-02-05 06:05:00,
2013-02-05 00:06:00,16.3,4.9,29.94,SSE,158,0.0,0.0,60,0.00,,CLR,0.00,VWS V14.01,2013-02-05 06:06:00,
2013-02-05 00:08:00,16.3,4.9,29.94,SSE,158,0.0,0.0,60,0.00,,CLR,0.00,VWS V14.01,2013-02-05 06:08:00,
2013-02-05 00:10:00,16.3,4.9,29.94,SSE,158,0.0,0.0,60,0.00,,CLR,0.00,VWS V14.01,2013-02-05 06:10:00,
2013-02-05 00:12:00,16.3,4.9,29.95,SSE,158,0.0,0.0,60,0.00,,CLR,0.00,VWS V14.01,2013-02-05 06:12:00,
2013-02-05 00:14:00,16.3,4.9,29.94,SSE,158,0.0,0.0,60,0.00,,CLR,0.00,VWS V14.01,2013-02-05 06:14:00,
2013-02-05 00:16:00,16.1,4.7,29.94,SSE,158,0.0,0.0,60,0.00,,CLR,0.00,VWS V14.01,2013-02-05 06:16:00,
2013-02-05 00:18:00,16.3,4.9,29.93,South,180,0.0,0.0,60,0.00,,CLR,0.00,VWS V14.01,2013-02-05 06:18:00,
2013-02-05 00:22:00,16.1,4.7,29.93,SSE,158,0.0,0.0,60,0.00,,CLR,0.00,VWS V14.01,2013-02-05 06:22:00,
2013-02-05 00:23:00,16.1,4.7,29.93,SSE,158,0.0,0.0,60,0.00,,CLR,0.00,VWS V14.01,2013-02-05 06:23:00,
2013-02-05 00:25:00,15.9,4.8,29.93,SSE,158,0.0,0.0,61,0.00,,CLR,0.00,VWS V14.01,2013-02-05 06:25:00,
2013-02-05 00:28:00,15.9,4.8,29.93,SSE,158,0.0,0.0,61,0.00,,CLR,0.00,VWS V14.01,2013-02-05 06:28:00,
2013-02-05 00:30:00,15.9,4.8,29.93,SSE,158,0.0,0.0,61,0.00,,CLR,0.00,VWS V14.01,2013-02-05 06:30:00,
2013-02-05 00:32:00,15.9,4.8,29.94,SSE,158,0.0,0.0,61,0.00,,CLR,0.00,VWS V14.01,2013-02-05 06:32:00,
2013-02-05 00:33:00,15.9,4.8,29.94,SSE,158,0.0,0.0,61,0.00,,CLR,0.00,VWS V14.01,2013-02-05 06:33:00,
2013-02-05 00:34:00,15.9,4.8,29.93,SSE,158,0.0,0.0,61,0.00,,CLR,0.00,VWS V14.01,2013-02-05 06:34:00,
2013-02-05 00:35:00,15.9,4.8,29.94,SSW,202,0.0,0.0,61,0.00,,CLR,0.00,VWS V14.01,2013-02-05 06:35:00,
2013-02-05 00:37:00,15.9,4.8,29.94,SSW,202,0.0,0.0,61,0.00,,CLR,0.00,VWS V14.01,2013-02-05 06:37:00,
2013-02-05 00:40:00,16.1,5.0,29.94,SSW,202,0.0,0.0,61,0.00,,CLR,0.00,VWS V14.01,2013-02-05 06:40:00,
2013-02-05 00:45:00,15.9,5.2,29.94,SSW,202,0.0,0.0,62,0.00,,CLR,0.00,VWS V14.01,2013-02-05 06:45:00,
2013-02-05 00:46:00,15.9,5.2,29.94,SSW,202,0.0,0.0,62,0.00,,CLR,0.00,VWS V14.01,2013-02-05 06:46:00,
2013-02-05 00:47:00,15.9,5.2,29.94,SSW,202,0.0,0.0,62,0.00,,CLR,0.00,VWS V14.01,2013-02-05 06:47:00,
2013-02-05 00:51:00,15.9,5.2,29.95,SW,225,0.0,0.0,62,0.00,,CLR,0.00,VWS V14.01,2013-02-05 06:51:00,
2013-02-05 00:52:00,15.9,5.2,29.94,SSW,202,0.0,0.0,62,0.00,,CLR,0.00,VWS V14.01,2013-02-05 06:52:00,
2013-02-05 00:54:00,15.9,5.2,29.94,SSW,202,0.0,0.0,62,0.00,,CLR,0.00,VWS V14.01,2013-02-05 06:54:00,
2013-02-05 00:58:00,15.8,5.1,29.94,SSW,202,0.0,0.0,62,0.00,,CLR,0.00,VWS V14.01,2013-02-05 06:58:00,
2013-02-05 00:59:00,15.9,5.2,29.94,SSW,202,0.0,0.0,62,0.00,,CLR,0.00,VWS V14.01,2013-02-05 06:59:00,
2013-02-05 01:03:00,15.9,5.2,29.95,SSW,202,0.0,0.0,62,0.00,,CLR,0.00,VWS V14.01,2013-02-05 07:03:00,
2013-02-05 01:06:00,15.9,5.2,29.95,SSW,202,0.0,0.0,62,0.00,,CLR,0.00,VWS V14.01,2013-02-05 07:06:00,
2013-02-05 01:07:00,15.9,5.2,29.95,SSW,202,0.0,0.0,62,0.00,,CLR,0.00,VWS V14.01,2013-02-05 07:07:00,
2013-02-05 01:09:00,15.9,5.2,29.95,SSW,202,0.0,0.0,62,0.00,,CLR,0.00,VWS V14.01,2013-02-05 07:09:00,
2013-02-05 01:11:00,15.9,5.6,29.95,SSW,202,0.0,0.0,63,0.00,,CLR,0.00,VWS V14.01,2013-02-05 07:11:00,
2013-02-05 01:12:00,15.9,5.6,29.94,SSW,202,0.0,0.0,63,0.00,,CLR,0.00,VWS V14.01,2013-02-05 07:12:00,
2013-02-05 01:17:00,15.9,5.6,29.94,SSW,202,0.0,0.0,63,0.00,,CLR,0.00,VWS V14.01,2013-02-05 07:17:00,
2013-02-05 01:18:00,15.9,5.6,29.94,SSW,202,0.0,0.0,63,0.00,,CLR,0.00,VWS V14.01,2013-02-05 07:18:00,
2013-02-05 01:22:00,15.9,5.6,29.94,SSW,202,0.0,0.0,63,0.00,,CLR,0.00,VWS V14.01,2013-02-05 07:22:00,
2013-02-05 01:23:00,15.8,5.4,29.94,SSW,202,0.0,0.0,63,0.00,,CLR,0.00,VWS V14.01,2013-02-05 07:23:00,
2013-02-05 01:24:00,15.8,5.4,29.94,SW,225,0.0,0.0,63,0.00,,CLR,0.00,VWS V14.01,2013-02-05 07:24:00,
2013-02-05 01:27:00,15.6,5.3,29.93,SSE,158,0.0,0.0,63,0.00,,CLR,0.00,VWS V14.01,2013-02-05 07:27:00,
2013-02-05 01:28:00,15.6,5.3,29.93,SSE,158,0.0,0.0,63,0.00,,CLR,0.00,VWS V14.01,2013-02-05 07:28:00,
2013-02-05 01:30:00,15.6,5.3,29.93,SSE,158,0.0,0.0,63,0.00,,CLR,0.00,VWS V14.01,2013-02-05 07:30:00,
2013-02-05 01:31:00,15.6,5.3,29.93,SSE,158,0.0,0.0,63,0.00,,CLR,0.00,VWS V14.01,2013-02-05 07:31:00,
2013-02-05 01:33:00,15.6,5.3,29.93,South,180,0.0,0.0,63,0.00,,CLR,0.00,VWS V14.01,2013-02-05 07:33:00,
2013-02-05 01:35:00,15.6,5.3,29.93,SSW,202,0.0,0.0,63,0.00,,CLR,0.00,VWS V14.01,2013-02-05 07:35:00,
2013-02-05 01:36:00,15.8,5.8,29.93,SSW,202,0.0,0.0,64,0.00,,CLR,0.00,VWS V14.01,2013-02-05 07:36:00,
2013-02-05 01:38:00,15.8,5.8,29.93,SSE,158,0.0,0.0,64,0.00,,CLR,0.00,VWS V14.01,2013-02-05 07:38:00,
2013-02-05 01:41:00,15.8,5.8,29.93,SSE,158,0.0,0.0,64,0.00,,CLR,0.00,VWS V14.01,2013-02-05 07:41:00,
2013-02-05 01:42:00,15.9,5.9,29.93,SSE,158,0.0,0.0,64,0.00,,CLR,0.00,VWS V14.01,2013-02-05 07:42:00,
2013-02-05 01:43:00,15.9,5.9,29.93,South,180,0.0,0.0,64,0.00,,CLR,0.00,VWS V14.01,2013-02-05 07:43:00,
2013-02-05 01:46:00,15.8,5.8,29.93,SSW,202,0.0,0.0,64,0.00,,CLR,0.00,VWS V14.01,2013-02-05 07:46:00,
2013-02-05 01:47:00,15.9,5.9,29.93,SSW,202,0.0,0.0,64,0.00,,CLR,0.00,VWS V14.01,2013-02-05 07:47:00,
2013-02-05 01:48:00,15.9,5.9,29.93,SSW,202,0.0,0.0,64,0.00,,CLR,0.00,VWS V14.01,2013-02-05 07:48:00,
2013-02-05 01:49:00,15.9,5.9,29.93,SSW,202,0.0,0.0,64,0.00,,CLR,0.00,VWS V14.01,2013-02-05 07:49:00,
2013-02-05 01:54:00,15.9,5.9,29.93,SSE,158,0.0,0.0,64,0.00,,CLR,0.00,VWS V14.01,2013-02-05 07:54:00,
2013-02-05 01:56:00,15.9,5.9,29.93,SSE,158,0.0,0.0,64,0.00,,CLR,0.00,VWS V14.01,2013-02-05 07:56:00,
2013-02-05 01:59:00,15.9,5.9,29.93,SSW,202,0.0,0.0,64,0.00,,CLR,0.00,VWS V14.01,2013-02-05 07:59:00,
2013-02-05 02:00:00,15.9,5.9,29.93,SSW,202,0.0,0.0,64,0.00,,CLR,0.00,VWS V14.01,2013-02-05 08:00:00,
2013-02-05 02:01:00,15.9,5.9,29.93,SSW,202,0.0,0.0,64,0.00,,CLR,0.00,VWS V14.01,2013-02-05 08:01:00,
2013-02-05 02:05:00,15.9,5.9,29.93,SSW,202,0.0,0.0,64,0.00,,CLR,0.00,VWS V14.01,2013-02-05 08:05:00,
2013-02-05 02:07:00,15.9,5.9,29.93,SSW,202,0.0,0.0,64,0.00,,CLR,0.00,VWS V14.01,2013-02-05 08:07:00,
2013-02-05 02:10:00,15.9,6.2,29.93,South,180,0.0,0.0,65,0.00,,CLR,0.00,VWS V14.01,2013-02-05 08:10:00,
2013-02-05 02:11:00,15.9,6.2,29.93,South,180,0.0,0.0,65,0.00,,CLR,0.00,VWS V14.01,2013-02-05 08:11:00,
2013-02-05 02:12:00,16.1,6.4,29.92,SW,225,0.0,0.0,65,0.00,,CLR,0.00,VWS V14.01,2013-02-05 08:12:00,
2013-02-05 02:13:00,16.1,6.4,29.92,SSW,202,1.2,1.2,65,0.00,,CLR,0.00,VWS V14.01,2013-02-05 08:13:00,
2013-02-05 02:16:00,16.1,6.4,29.92,South,180,0.0,0.0,65,0.00,,CLR,0.00,VWS V14.01,2013-02-05 08:16:00,
2013-02-05 02:17:00,15.9,6.2,29.92,South,180,0.0,0.0,65,0.00,,CLR,0.00,VWS V14.01,2013-02-05 08:17:00,
2013-02-05 02:18:00,15.9,6.2,29.91,South,180,0.0,0.0,65,0.00,,CLR,0.00,VWS V14.01,2013-02-05 08:18:00,
2013-02-05 02:22:00,15.9,6.2,29.91,SSE,158,0.0,0.0,65,0.00,,CLR,0.00,VWS V14.01,2013-02-05 08:22:00,
2013-02-05 02:24:00,16.1,6.4,29.91,SSW,202,0.0,0.0,65,0.00,,CLR,0.00,VWS V14.01,2013-02-05 08:24:00,
2013-02-05 02:25:00,16.1,6.4,29.91,SSE,158,0.0,0.0,65,0.00,,CLR,0.00,VWS V14.01,2013-02-05 08:25:00,
2013-02-05 02:27:00,16.1,6.4,29.92,South,180,0.0,0.0,65,0.00,,CLR,0.00,VWS V14.01,2013-02-05 08:27:00,
2013-02-05 02:29:00,16.1,6.4,29.92,SSE,158,0.0,0.0,65,0.00,,CLR,0.00,VWS V14.01,2013-02-05 08:29:00,
2013-02-05 02:30:00,16.1,6.4,29.91,South,180,0.0,0.0,65,0.00,,CLR,0.00,VWS V14.01,2013-02-05 08:30:00,
2013-02-05 02:32:00,16.1,6.4,29.91,South,180,0.0,0.0,65,0.00,,CLR,0.00,VWS V14.01,2013-02-05 08:32:00,
2013-02-05 02:35:00,16.1,6.4,29.92,SSW,202,0.0,0.0,65,0.00,,CLR,0.00,VWS V14.01,2013-02-05 08:35:00,
2013-02-05 02:36:00,16.3,6.6,29.91,SSW,202,0.0,0.0,65,0.00,,CLR,0.00,VWS V14.01,2013-02-05 08:36:00,
2013-02-05 02:38:00,16.1,6.4,29.91,South,180,0.0,0.0,65,0.00,,CLR,0.00,VWS V14.01,2013-02-05 08:38:00,
2013-02-05 02:40:00,16.3,6.6,29.91,South,180,0.0,0.0,65,0.00,,FEW110,0.00,VWS V14.01,2013-02-05 08:40:00,
2013-02-05 02:41:00,16.3,6.6,29.91,South,180,0.0,0.0,65,0.00,,FEW110,0.00,VWS V14.01,2013-02-05 08:41:00,
2013-02-05 02:42:00,16.3,6.6,29.91,South,180,0.0,0.0,65,0.00,,FEW110,0.00,VWS V14.01,2013-02-05 08:42:00,
2013-02-05 02:43:00,16.5,6.8,29.91,South,180,0.0,0.0,65,0.00,,FEW110,0.00,VWS V14.01,2013-02-05 08:43:00,
2013-02-05 02:45:00,16.5,6.8,29.91,South,180,0.0,0.0,65,0.00,,FEW110,0.00,VWS V14.01,2013-02-05 08:45:00,
2013-02-05 02:48:00,16.5,6.8,29.91,SSE,158,0.0,0.0,65,0.00,,FEW110,0.00,VWS V14.01,2013-02-05 08:48:00,
2013-02-05 02:50:00,16.5,6.8,29.90,SSW,202,0.0,0.0,65,0.00,,FEW110,0.00,VWS V14.01,2013-02-05 08:50:00,
2013-02-05 02:52:00,16.5,6.8,29.90,SSW,202,0.0,0.0,65,0.00,,FEW110,0.00,VWS V14.01,2013-02-05 08:52:00,
2013-02-05 02:53:00,16.5,6.8,29.90,SSE,158,0.0,0.0,65,0.00,,FEW110,0.00,VWS V14.01,2013-02-05 08:53:00,
2013-02-05 02:56:00,16.5,6.8,29.91,South,180,0.0,0.0,65,0.00,,FEW110,0.00,VWS V14.01,2013-02-05 08:56:00,
2013-02-05 02:58:00,16.5,6.8,29.91,SSE,158,0.0,0.0,65,0.00,,FEW110,0.00,VWS V14.01,2013-02-05 08:58:00,
2013-02-05 02:59:00,16.5,6.8,29.91,SSE,158,0.0,0.0,65,0.00,,FEW110,0.00,VWS V14.01,2013-02-05 08:59:00,
2013-02-05 03:01:00,16.5,6.8,29.91,SSE,158,0.0,0.0,65,0.00,,FEW110,0.00,VWS V14.01,2013-02-05 09:01:00,
2013-02-05 03:03:00,16.5,6.8,29.91,SSE,158,0.0,0.0,65,0.00,,FEW110,0.00,VWS V14.01,2013-02-05 09:03:00,
2013-02-05 03:08:00,16.5,6.8,29.91,SSE,158,0.0,0.0,65,0.00,,FEW110,0.00,VWS V14.01,2013-02-05 09:08:00,
2013-02-05 03:09:00,16.5,6.8,29.91,SSE,158,0.0,0.0,65,0.00,,FEW110,0.00,VWS V14.01,2013-02-05 09:09:00,
2013-02-05 03:10:00,16.5,6.8,29.91,SSE,158,0.0,0.0,65,0.00,,FEW110,0.00,VWS V14.01,2013-02-05 09:10:00,
2013-02-05 03:12:00,16.8,7.1,29.91,South,180,0.0,0.0,65,0.00,,FEW110,0.00,VWS V14.01,2013-02-05 09:12:00,
2013-02-05 03:15:00,16.8,7.1,29.90,SSE,158,0.0,0.0,65,0.00,,FEW110,0.00,VWS V14.01,2013-02-05 09:15:00,
2013-02-05 03:16:00,16.8,7.1,29.90,SSW,202,0.0,0.0,65,0.00,,FEW110,0.00,VWS V14.01,2013-02-05 09:16:00,
2013-02-05 03:19:00,16.8,7.1,29.90,South,180,4.8,4.8,65,0.00,,FEW110,0.00,VWS V14.01,2013-02-05 09:19:00,
2013-02-05 03:20:00,17.0,7.3,29.90,SSW,202,0.0,0.0,65,0.00,,FEW110,0.00,VWS V14.01,2013-02-05 09:20:00,
2013-02-05 03:21:00,17.0,7.3,29.90,SSE,158,0.0,0.0,65,0.00,,FEW110,0.00,VWS V14.01,2013-02-05 09:21:00,
2013-02-05 03:25:00,17.0,7.3,29.90,SSE,158,0.0,0.0,65,0.00,,FEW110,0.00,VWS V14.01,2013-02-05 09:25:00,
2013-02-05 03:26:00,17.2,7.5,29.90,SSE,158,0.0,0.0,65,0.00,,FEW110,0.00,VWS V14.01,2013-02-05 09:26:00,
2013-02-05 03:31:00,17.2,7.5,29.90,SSE,158,0.0,0.0,65,0.00,,FEW110,0.00,VWS V14.01,2013-02-05 09:31:00,
2013-02-05 03:33:00,17.2,7.5,29.90,SSE,158,0.0,0.0,65,0.00,,FEW110,0.00,VWS V14.01,2013-02-05 09:33:00,
2013-02-05 03:34:00,17.4,7.7,29.90,SSE,158,0.0,0.0,65,0.00,,FEW110,0.00,VWS V14.01,2013-02-05 09:34:00,
2013-02-05 03:38:00,17.4,7.7,29.90,SSE,158,0.0,0.0,65,0.00,,FEW110,0.00,VWS V14.01,2013-02-05 09:38:00,
2013-02-05 03:40:00,17.4,7.7,29.90,SSE,158,0.0,0.0,65,0.00,,OVC085,0.00,VWS V14.01,2013-02-05 09:40:00,
2013-02-05 03:41:00,17.4,7.7,29.90,SSE,158,0.0,0.0,65,0.00,,OVC085,0.00,VWS V14.01,2013-02-05 09:41:00,
2013-02-05 03:43:00,17.6,7.8,29.90,SSW,202,0.0,0.0,65,0.00,,OVC085,0.00,VWS V14.01,2013-02-05 09:43:00,
2013-02-05 03:44:00,17.6,7.8,29.90,SSE,158,0.0,0.0,65,0.00,,OVC085,0.00,VWS V14.01,2013-02-05 09:44:00,
2013-02-05 03:46:00,17.6,7.8,29.90,SSW,202,0.0,0.0,65,0.00,,OVC085,0.00,VWS V14.01,2013-02-05 09:46:00,
2013-02-05 03:48:00,17.7,7.9,29.90,SSW,202,0.0,0.0,65,0.00,,OVC085,0.00,VWS V14.01,2013-02-05 09:48:00,
2013-02-05 03:50:00,17.7,7.9,29.90,SSE,158,0.0,0.0,65,0.00,,OVC085,0.00,VWS V14.01,2013-02-05 09:50:00,
2013-02-05 03:54:00,17.7,7.9,29.90,SSE,158,0.0,0.0,65,0.00,,OVC085,0.00,VWS V14.01,2013-02-05 09:54:00,
2013-02-05 03:56:00,17.7,7.9,29.90,SSE,158,0.0,0.0,65,0.00,,OVC085,0.00,VWS V14.01,2013-02-05 09:56:00,
2013-02-05 03:58:00,17.7,7.9,29.90,SSW,202,0.0,0.0,65,0.00,,OVC085,0.00,VWS V14.01,2013-02-05 09:58:00,
2013-02-05 04:00:00,17.7,7.9,29.89,SSE,158,0.0,0.0,65,0.00,,OVC085,0.00,VWS V14.01,2013-02-05 10:00:00,
2013-02-05 04:04:00,17.7,7.9,29.89,SSE,158,0.0,0.0,65,0.00,,OVC085,0.00,VWS V14.01,2013-02-05 10:04:00,
2013-02-05 04:06:00,17.7,7.9,29.89,South,180,0.0,0.0,65,0.00,,OVC085,0.00,VWS V14.01,2013-02-05 10:06:00,
2013-02-05 04:08:00,17.7,7.9,29.89,South,180,0.0,0.0,65,0.00,,OVC085,0.00,VWS V14.01,2013-02-05 10:08:00,
2013-02-05 04:11:00,17.9,8.1,29.89,South,180,0.0,0.0,65,0.00,,OVC085,0.00,VWS V14.01,2013-02-05 10:11:00,
2013-02-05 04:12:00,17.9,8.1,29.89,South,180,0.0,0.0,65,0.00,,OVC085,0.00,VWS V14.01,2013-02-05 10:12:00,
2013-02-05 04:14:00,17.9,8.1,29.88,SSE,158,0.0,0.0,65,0.00,,OVC085,0.00,VWS V14.01,2013-02-05 10:14:00,
2013-02-05 04:16:00,17.9,8.1,29.89,SSW,202,0.0,0.0,65,0.00,,OVC085,0.00,VWS V14.01,2013-02-05 10:16:00,
2013-02-05 04:17:00,17.9,8.1,29.88,SSE,158,0.0,0.0,65,0.00,,OVC085,0.00,VWS V14.01,2013-02-05 10:17:00,
2013-02-05 04:19:00,17.9,8.1,29.88,SW,225,5.8,5.8,65,0.00,,OVC085,0.00,VWS V14.01,2013-02-05 10:19:00,
2013-02-05 04:21:00,17.9,8.1,29.88,SSW,202,0.0,0.0,65,0.00,,OVC085,0.00,VWS V14.01,2013-02-05 10:21:00,
2013-02-05 04:24:00,17.9,8.1,29.88,South,180,0.0,0.0,65,0.00,,OVC085,0.00,VWS V14.01,2013-02-05 10:24:00,
2013-02-05 04:25:00,17.9,8.1,29.88,SSE,158,0.0,0.0,65,0.00,,OVC085,0.00,VWS V14.01,2013-02-05 10:25:00,
2013-02-05 04:27:00,17.9,8.1,29.88,SSE,158,0.0,0.0,65,0.00,,OVC085,0.00,VWS V14.01,2013-02-05 10:27:00,
2013-02-05 04:30:00,18.1,8.7,29.88,SSE,158,0.0,0.0,66,0.00,,OVC085,0.00,VWS V14.01,2013-02-05 10:30:00,
2013-02-05 04:31:00,18.1,8.7,29.88,SSE,158,4.8,4.8,66,0.00,,OVC085,0.00,VWS V14.01,2013-02-05 10:31:00,
2013-02-05 04:34:00,18.1,8.7,29.88,SSE,158,0.0,0.0,66,0.00,,OVC085,0.00,VWS V14.01,2013-02-05 10:34:00,
2013-02-05 04:35:00,18.1,8.7,29.88,SSE,158,0.0,0.0,66,0.00,,OVC085,0.00,VWS V14.01,2013-02-05 10:35:00,
2013-02-05 04:38:00,18.1,8.7,29.88,SSE,158,0.0,0.0,66,0.00,,OVC085,0.00,VWS V14.01,2013-02-05 10:38:00,
2013-02-05 04:40:00,18.1,8.7,29.88,SSW,202,0.0,0.0,66,0.00,,OVC047,0.00,VWS V14.01,2013-02-05 10:40:00,
2013-02-05 04:43:00,18.3,8.9,29.88,SW,225,0.0,0.0,66,0.00,,OVC047,0.00,VWS V14.01,2013-02-05 10:43:00,
2013-02-05 04:45:00,18.3,8.9,29.88,South,180,0.0,0.0,66,0.00,,OVC047,0.00,VWS V14.01,2013-02-05 10:45:00,
2013-02-05 04:46:00,18.3,8.9,29.88,South,180,0.0,0.0,66,0.00,,OVC047,0.00,VWS V14.01,2013-02-05 10:46:00,
2013-02-05 04:50:00,18.5,9.1,29.88,SSW,202,0.0,0.0,66,0.00,,OVC047,0.00,VWS V14.01,2013-02-05 10:50:00,
2013-02-05 04:52:00,18.5,9.1,29.88,SSE,158,0.0,0.0,66,0.00,,OVC047,0.00,VWS V14.01,2013-02-05 10:52:00,
2013-02-05 04:54:00,18.5,9.1,29.88,SSE,158,0.0,0.0,66,0.00,,OVC047,0.00,VWS V14.01,2013-02-05 10:54:00,
2013-02-05 04:55:00,18.5,9.1,29.88,SSW,202,0.0,0.0,66,0.00,,OVC047,0.00,VWS V14.01,2013-02-05 10:55:00,
2013-02-05 04:58:00,18.5,9.4,29.88,South,180,0.0,0.0,67,0.00,,OVC047,0.00,VWS V14.01,2013-02-05 10:58:00,
2013-02-05 04:59:00,18.5,9.4,29.87,South,180,0.0,0.0,67,0.00,,OVC047,0.00,VWS V14.01,2013-02-05 10:59:00,
2013-02-05 05:04:00,18.5,9.4,29.86,South,180,0.0,0.0,67,0.00,,OVC047,0.00,VWS V14.01,2013-02-05 11:04:00,
2013-02-05 05:05:00,18.6,9.5,29.86,South,180,0.0,0.0,67,0.00,,OVC047,0.00,VWS V14.01,2013-02-05 11:05:00,
2013-02-05 05:06:00,18.6,9.5,29.86,SW,225,0.0,0.0,67,0.00,,OVC047,0.00,VWS V14.01,2013-02-05 11:06:00,
2013-02-05 05:10:00,18.6,9.5,29.86,SSW,202,0.0,0.0,67,0.00,,OVC047,0.00,VWS V14.01,2013-02-05 11:10:00,
2013-02-05 05:12:00,18.6,9.5,29.86,SSE,158,0.0,0.0,67,0.00,,OVC047,0.00,VWS V14.01,2013-02-05 11:12:00,
2013-02-05 05:13:00,18.8,9.7,29.86,South,180,4.4,4.4,67,0.00,,OVC047,0.00,VWS V14.01,2013-02-05 11:13:00,
2013-02-05 05:15:00,18.8,9.7,29.85,SSW,202,0.0,4.4,67,0.00,,OVC047,0.00,VWS V14.01,2013-02-05 11:15:00,
2013-02-05 05:16:00,18.8,9.7,29.85,SSW,202,0.0,4.4,67,0.00,,OVC047,0.00,VWS V14.01,2013-02-05 11:16:00,
2013-02-05 05:17:00,18.8,9.7,29.85,SSW,202,0.0,0.0,67,0.00,,OVC047,0.00,VWS V14.01,2013-02-05 11:17:00,
2013-02-05 05:20:00,18.8,10.0,29.85,South,180,0.0,0.0,68,0.00,,OVC047,0.00,VWS V14.01,2013-02-05 11:20:00,
2013-02-05 05:22:00,19.0,10.2,29.85,SSE,158,0.0,0.0,68,0.00,,OVC047,0.00,VWS V14.01,2013-02-05 11:22:00,
2013-02-05 05:23:00,19.0,10.2,29.85,SSE,158,0.0,0.0,68,0.00,,OVC047,0.00,VWS V14.01,2013-02-05 11:23:00,
2013-02-05 05:24:00,19.0,10.2,29.85,South,180,4.4,4.4,68,0.00,,OVC047,0.00,VWS V14.01,2013-02-05 11:24:00,
2013-02-05 05:26:00,19.0,10.2,29.85,SSE,158,0.0,0.0,68,0.00,,OVC047,0.00,VWS V14.01,2013-02-05 11:26:00,
2013-02-05 05:29:00,19.0,10.2,29.85,SSE,158,0.0,0.0,68,0.00,,OVC047,0.00,VWS V14.01,2013-02-05 11:29:00,
2013-02-05 05:31:00,19.2,10.4,29.85,South,180,0.0,0.0,68,0.00,,OVC047,0.00,VWS V14.01,2013-02-05 11:31:00,
2013-02-05 05:32:00,19.0,10.2,29.85,SSW,202,0.0,0.0,68,0.00,,OVC047,0.00,VWS V14.01,2013-02-05 11:32:00,
2013-02-05 05:33:00,19.2,10.4,29.85,South,180,0.0,0.0,68,0.00,,OVC047,0.00,VWS V14.01,2013-02-05 11:33:00,
2013-02-05 05:34:00,19.2,10.4,29.85,South,180,0.0,0.0,68,0.00,,OVC047,0.00,VWS V14.01,2013-02-05 11:34:00,
2013-02-05 05:36:00,19.2,10.4,29.85,South,180,0.0,0.0,68,0.00,,OVC047,0.00,VWS V14.01,2013-02-05 11:36:00,
2013-02-05 05:39:00,19.4,10.6,29.85,South,180,0.0,2.6,68,0.00,,OVC047,0.00,VWS V14.01,2013-02-05 11:39:00,
2013-02-05 05:40:00,19.5,10.7,29.85,South,180,0.0,2.6,68,0.00,,OVC100,0.00,VWS V14.01,2013-02-05 11:40:00,
2013-02-05 05:44:00,19.5,11.0,29.86,SSW,202,0.0,0.0,69,0.00,,OVC100,0.00,VWS V14.01,2013-02-05 11:44:00,
2013-02-05 05:45:00,19.5,11.0,29.86,SSW,202,0.0,0.0,69,0.00,,OVC100,0.00,VWS V14.01,2013-02-05 11:45:00,
2013-02-05 05:46:00,19.5,11.0,29.86,SSW,202,0.0,0.0,69,0.00,,OVC100,0.00,VWS V14.01,2013-02-05 11:46:00,
2013-02-05 05:50:00,19.5,11.0,29.85,South,180,0.0,0.0,69,0.00,,OVC100,0.00,VWS V14.01,2013-02-05 11:50:00,
2013-02-05 05:51:00,19.5,11.0,29.85,SSE,158,0.0,0.0,69,0.00,,OVC100,0.00,VWS V14.01,2013-02-05 11:51:00,
2013-02-05 05:52:00,19.5,11.0,29.86,South,180,0.0,0.0,69,0.00,,OVC100,0.00,VWS V14.01,2013-02-05 11:52:00,
2013-02-05 05:56:00,19.7,11.2,29.86,South,180,0.0,0.0,69,0.00,,OVC100,0.00,VWS V14.01,2013-02-05 11:56:00,
2013-02-05 05:58:00,19.7,11.2,29.86,SSW,202,0.0,0.8,69,0.00,,OVC100,0.00,VWS V14.01,2013-02-05 11:58:00,
2013-02-05 06:00:00,19.7,11.2,29.86,SW,225,0.4,0.4,69,0.00,,OVC100,0.00,VWS V14.01,2013-02-05 12:00:00,
2013-02-05 06:02:00,19.7,11.2,29.86,South,180,0.0,0.0,69,0.00,,OVC100,0.00,VWS V14.01,2013-02-05 12:02:00,
2013-02-05 06:03:00,19.7,11.2,29.86,South,180,0.0,0.0,69,0.00,,OVC100,0.00,VWS V14.01,2013-02-05 12:03:00,
2013-02-05 06:07:00,19.9,11.7,29.86,South,180,0.0,0.0,70,0.00,,OVC100,0.00,VWS V14.01,2013-02-05 12:07:00,
2013-02-05 06:08:00,19.9,11.7,29.86,South,180,0.0,0.0,70,0.00,,OVC100,0.00,VWS V14.01,2013-02-05 12:08:00,
2013-02-05 06:10:00,20.1,11.9,29.85,South,180,0.0,0.0,70,0.00,,OVC100,0.00,VWS V14.01,2013-02-05 12:10:00,
2013-02-05 06:14:00,20.1,11.9,29.85,South,180,0.0,0.0,70,0.00,,OVC100,0.00,VWS V14.01,2013-02-05 12:14:00,
2013-02-05 06:15:00,20.1,11.9,29.85,South,180,0.0,0.0,70,0.00,,OVC100,0.00,VWS V14.01,2013-02-05 12:15:00,
2013-02-05 06:17:00,20.1,11.9,29.86,SSW,202,0.0,0.0,70,0.00,,OVC100,0.00,VWS V14.01,2013-02-05 12:17:00,
2013-02-05 06:20:00,20.1,11.9,29.86,South,180,0.0,0.0,70,0.00,,OVC100,0.00,VWS V14.01,2013-02-05 12:20:00,
2013-02-05 06:22:00,20.1,11.9,29.86,South,180,0.0,0.0,70,0.00,,OVC100,0.00,VWS V14.01,2013-02-05 12:22:00,
2013-02-05 06:25:00,20.1,11.9,29.86,SSW,202,0.0,0.0,70,0.00,,OVC100,0.00,VWS V14.01,2013-02-05 12:25:00,
2013-02-05 06:27:00,20.3,12.1,29.86,South,180,0.0,0.0,70,0.00,,OVC100,0.00,VWS V14.01,2013-02-05 12:27:00,
2013-02-05 06:28:00,20.3,12.1,29.86,SSW,202,0.0,0.0,70,0.00,,OVC100,0.00,VWS V14.01,2013-02-05 12:28:00,
2013-02-05 06:32:00,20.3,12.1,29.85,SSW,202,0.0,2.6,70,0.00,,OVC100,0.00,VWS V14.01,2013-02-05 12:32:00,
2013-02-05 06:36:00,20.3,12.1,29.85,South,180,0.0,0.0,70,0.00,,OVC100,0.00,VWS V14.01,2013-02-05 12:36:00,
2013-02-05 06:37:00,20.3,12.1,29.85,SSE,158,3.4,3.4,70,0.00,,OVC100,0.00,VWS V14.01,2013-02-05 12:37:00,
2013-02-05 06:38:00,20.3,12.1,29.85,SW,225,0.0,3.4,70,0.00,,OVC100,0.00,VWS V14.01,2013-02-05 12:38:00,
2013-02-05 06:44:00,20.4,12.5,29.85,SSW,202,3.0,3.0,71,0.00,,OVC100,0.00,VWS V14.01,2013-02-05 12:44:00,
2013-02-05 06:46:00,20.3,12.4,29.85,South,180,0.0,0.0,71,0.00,,OVC100,0.00,VWS V14.01,2013-02-05 12:46:00,
2013-02-05 06:47:00,20.6,12.7,29.85,South,180,0.0,0.0,71,0.00,,OVC100,0.00,VWS V14.01,2013-02-05 12:47:00,
2013-02-05 06:49:00,20.6,12.7,29.85,South,180,0.0,0.0,71,0.00,,OVC100,0.00,VWS V14.01,2013-02-05 12:49:00,
2013-02-05 06:51:00,20.4,12.5,29.86,SSE,158,0.0,0.0,71,0.00,,OVC085,0.00,VWS V14.01,2013-02-05 12:51:00,
2013-02-05 06:52:00,20.6,12.7,29.85,SSW,202,0.0,0.0,71,0.00,,OVC085,0.00,VWS V14.01,2013-02-05 12:52:00,
2013-02-05 06:53:00,20.4,12.5,29.85,South,180,0.0,0.0,71,0.00,,OVC085,0.00,VWS V14.01,2013-02-05 12:53:00,
2013-02-05 06:56:00,20.6,12.7,29.85,SSW,202,0.0,0.0,71,0.00,,OVC085,0.00,VWS V14.01,2013-02-05 12:56:00,
2013-02-05 06:57:00,20.6,12.7,29.85,SSW,202,0.0,0.0,71,0.00,,OVC085,0.00,VWS V14.01,2013-02-05 12:57:00,
2013-02-05 06:58:00,20.6,12.7,29.85,South,180,0.0,0.0,71,0.00,,OVC085,0.00,VWS V14.01,2013-02-05 12:58:00,
2013-02-05 07:00:00,20.6,12.7,29.85,SSE,158,0.0,4.0,71,0.00,,OVC085,0.00,VWS V14.01,2013-02-05 13:00:00,
2013-02-05 07:02:00,20.6,12.7,29.85,South,180,0.0,0.0,71,0.00,,OVC085,0.00,VWS V14.01,2013-02-05 13:02:00,
2013-02-05 07:03:00,20.6,12.7,29.85,South,180,0.0,0.0,71,0.00,,OVC085,0.00,VWS V14.01,2013-02-05 13:03:00,
2013-02-05 07:07:00,20.6,12.7,29.85,South,180,0.0,0.0,71,0.00,,OVC085,0.00,VWS V14.01,2013-02-05 13:07:00,
2013-02-05 07:08:00,20.4,12.5,29.85,SSE,158,6.6,6.6,71,0.00,,OVC085,0.00,VWS V14.01,2013-02-05 13:08:00,
2013-02-05 07:13:00,20.4,12.8,29.84,SSW,202,0.0,0.0,72,0.00,,OVC085,0.00,VWS V14.01,2013-02-05 13:13:00,
2013-02-05 07:14:00,20.4,12.8,29.84,South,180,0.0,0.0,72,0.00,,OVC085,0.00,VWS V14.01,2013-02-05 13:14:00,
2013-02-05 07:16:00,20.6,13.0,29.84,SSE,158,0.0,0.0,72,0.00,,OVC085,0.00,VWS V14.01,2013-02-05 13:16:00,
2013-02-05 07:21:00,20.4,12.8,29.84,South,180,0.0,0.0,72,0.00,,OVC085,0.00,VWS V14.01,2013-02-05 13:21:00,
2013-02-05 07:22:00,20.6,13.0,29.84,SSW,202,0.0,0.0,72,0.00,,OVC085,0.00,VWS V14.01,2013-02-05 13:22:00,
2013-02-05 07:24:00,20.4,12.8,29.84,South,180,0.0,0.0,72,0.00,,OVC085,0.00,VWS V14.01,2013-02-05 13:24:00,
2013-02-05 07:28:00,20.6,13.0,29.84,South,180,0.0,0.0,72,0.00,,OVC085,0.00,VWS V14.01,2013-02-05 13:28:00,
2013-02-05 07:29:00,20.4,12.8,29.84,SSW,202,0.0,0.0,72,0.00,,OVC085,0.00,VWS V14.01,2013-02-05 13:29:00,
2013-02-05 07:33:00,20.6,13.0,29.84,SSE,158,0.0,0.0,72,0.00,,OVC085,0.00,VWS V14.01,2013-02-05 13:33:00,
2013-02-05 07:34:00,20.4,12.8,29.84,SSE,158,0.0,0.0,72,0.00,,OVC085,0.00,VWS V14.01,2013-02-05 13:34:00,
2013-02-05 07:36:00,20.6,13.3,29.84,South,180,0.0,0.0,73,0.00,,OVC085,0.00,VWS V14.01,2013-02-05 13:36:00,
2013-02-05 07:38:00,20.6,13.3,29.84,SSW,202,0.0,0.0,73,0.00,,OVC085,0.00,VWS V14.01,2013-02-05 13:38:00,
2013-02-05 07:39:00,20.6,13.3,29.85,South,180,0.0,0.0,73,0.00,,OVC085,0.00,VWS V14.01,2013-02-05 13:39:00,
2013-02-05 07:40:00,20.8,13.5,29.85,SSE,158,0.0,0.0,73,0.00,,OVC080,0.00,VWS V14.01,2013-02-05 13:40:00,
2013-02-05 07:43:00,20.8,13.5,29.85,South,180,0.0,4.4,73,0.00,,OVC080,0.00,VWS V14.01,2013-02-05 13:43:00,
2013-02-05 07:44:00,20.8,13.5,29.85,SSE,158,0.0,4.4,73,0.00,,OVC080,0.00,VWS V14.01,2013-02-05 13:44:00,
2013-02-05 07:46:00,20.8,13.5,29.85,South,180,0.0,0.0,73,0.00,,OVC080,0.00,VWS V14.01,2013-02-05 13:46:00,
2013-02-05 07:48:00,20.8,13.5,29.84,South,180,0.0,0.0,73,0.00,,OVC080,0.00,VWS V14.01,2013-02-05 13:48:00,
2013-02-05 07:50:00,20.8,13.5,29.84,SSW,202,0.0,0.0,73,0.00,,OVC080,0.00,VWS V14.01,2013-02-05 13:50:00,
2013-02-05 07:51:00,20.8,13.5,29.84,South,180,0.0,0.0,73,0.00,,OVC080,0.00,VWS V14.01,2013-02-05 13:51:00,
2013-02-05 07:53:00,21.0,13.7,29.84,SSW,202,0.0,0.0,73,0.00,,OVC080,0.00,VWS V14.01,2013-02-05 13:53:00,
2013-02-05 07:54:00,21.0,13.7,29.84,South,180,0.0,0.0,73,0.00,,OVC080,0.00,VWS V14.01,2013-02-05 13:54:00,
2013-02-05 07:58:00,21.3,14.3,29.84,SSE,158,3.0,3.0,74,0.00,,OVC080,0.00,VWS V14.01,2013-02-05 13:58:00,
2013-02-05 07:59:00,21.3,14.3,29.84,South,180,0.0,3.0,74,0.00,,OVC080,0.00,VWS V14.01,2013-02-05 13:59:00,
2013-02-05 08:02:00,21.3,14.3,29.84,South,180,0.0,0.0,74,0.00,,OVC080,0.00,VWS V14.01,2013-02-05 14:02:00,
2013-02-05 08:03:00,21.3,14.3,29.84,South,180,0.0,0.0,74,0.00,,OVC080,0.00,VWS V14.01,2013-02-05 14:03:00,
2013-02-05 08:05:00,21.5,14.5,29.84,SSW,202,0.0,0.0,74,0.00,,OVC080,0.00,VWS V14.01,2013-02-05 14:05:00,
2013-02-05 08:06:00,21.5,14.5,29.83,SW,225,0.0,0.0,74,0.00,,OVC080,0.00,VWS V14.01,2013-02-05 14:06:00,
2013-02-05 08:08:00,21.5,14.5,29.83,South,180,0.0,0.0,74,0.00,,OVC080,0.00,VWS V14.01,2013-02-05 14:08:00,
2013-02-05 08:09:00,21.5,14.5,29.83,SSW,202,0.0,0.0,74,0.00,,OVC080,0.00,VWS V14.01,2013-02-05 14:09:00,
2013-02-05 08:11:00,21.7,14.7,29.83,South,180,0.0,0.0,74,0.00,,OVC080,0.00,VWS V14.01,2013-02-05 14:11:00,
2013-02-05 08:14:00,21.9,14.9,29.83,South,180,0.0,0.0,74,0.00,,OVC080,0.00,VWS V14.01,2013-02-05 14:14:00,
2013-02-05 08:16:00,22.1,15.1,29.83,SSW,202,13.4,13.4,74,0.00,,OVC080,0.00,VWS V14.01,2013-02-05 14:16:00,
2013-02-05 08:17:00,22.1,15.1,29.83,SSW,202,8.0,13.4,74,0.00,,OVC080,0.00,VWS V14.01,2013-02-05 14:17:00,
2013-02-05 08:18:00,22.1,15.1,29.83,South,180,0.0,0.0,74,0.00,,OVC080,0.00,VWS V14.01,2013-02-05 14:18:00,
2013-02-05 08:20:00,22.4,15.4,29.83,SSW,202,0.0,0.0,74,0.00,,OVC080,0.00,VWS V14.01,2013-02-05 14:20:00,
2013-02-05 08:22:00,22.4,15.4,29.83,South,180,0.0,0.0,74,0.00,,OVC080,0.00,VWS V14.01,2013-02-05 14:22:00,
2013-02-05 08:25:00,22.6,15.6,29.84,South,180,3.4,3.4,74,0.00,,OVC080,0.00,VWS V14.01,2013-02-05 14:25:00,
2013-02-05 08:28:00,22.8,15.8,29.84,SSW,202,0.0,2.6,74,0.00,,OVC080,0.00,VWS V14.01,2013-02-05 14:28:00,
2013-02-05 08:30:00,23.1,16.1,29.84,South,180,0.0,0.0,74,0.00,,OVC080,0.00,VWS V14.01,2013-02-05 14:30:00,
2013-02-05 08:31:00,23.1,16.1,29.83,SW,225,0.0,0.0,74,0.00,,OVC080,0.00,VWS V14.01,2013-02-05 14:31:00,
2013-02-05 08:32:00,23.1,16.1,29.83,SW,225,6.2,6.2,74,0.00,,OVC080,0.00,VWS V14.01,2013-02-05 14:32:00,
2013-02-05 08:34:00,23.3,16.2,29.84,SSW,202,4.4,4.4,74,0.00,,OVC080,0.00,VWS V14.01,2013-02-05 14:34:00,
2013-02-05 08:37:00,23.3,16.2,29.83,SW,225,0.0,0.0,74,0.00,,OVC080,0.00,VWS V14.01,2013-02-05 14:37:00,
2013-02-05 08:38:00,23.3,16.2,29.83,SSE,158,0.0,0.0,74,0.00,,OVC080,0.00,VWS V14.01,2013-02-05 14:38:00,
2013-02-05 08:40:00,23.3,15.9,29.83,SSW,202,0.0,0.0,73,0.00,,,0.00,VWS V14.01,2013-02-05 14:40:00,
2013-02-05 08:42:00,23.3,15.9,29.83,SSW,202,0.0,0.0,73,0.00,,,0.00,VWS V14.01,2013-02-05 14:42:00,
2013-02-05 08:45:00,23.7,16.3,29.83,South,180,13.4,13.4,73,0.00,,,0.00,VWS V14.01,2013-02-05 14:45:00,
2013-02-05 08:46:00,23.7,16.3,29.83,SSE,158,0.0,13.4,73,0.00,,,0.00,VWS V14.01,2013-02-05 14:46:00,
2013-02-05 08:50:00,24.2,16.8,29.83,SSW,202,0.0,0.0,73,0.00,,,0.00,VWS V14.01,2013-02-05 14:50:00,
2013-02-05 08:51:00,24.2,16.8,29.83,South,180,8.0,8.0,73,0.00,,,0.00,VWS V14.01,2013-02-05 14:51:00,
2013-02-05 08:52:00,24.4,17.0,29.83,SW,225,0.0,0.0,73,0.00,,,0.00,VWS V14.01,2013-02-05 14:52:00,
2013-02-05 08:54:00,24.6,16.9,29.83,SW,225,4.4,6.6,72,0.00,,,0.00,VWS V14.01,2013-02-05 14:54:00,
2013-02-05 08:57:00,24.9,17.2,29.83,South,180,0.0,0.0,72,0.00,,,0.00,VWS V14.01,2013-02-05 14:57:00,
2013-02-05 08:58:00,24.9,17.2,29.83,SSW,202,5.8,5.8,72,0.00,,,0.00,VWS V14.01,2013-02-05 14:58:00,
2013-02-05 09:01:00,25.1,17.0,29.83,South,180,0.0,12.0,71,0.00,,,0.00,VWS V14.01,2013-02-05 15:01:00,
2013-02-05 09:03:00,25.3,17.2,29.83,South,180,0.0,8.0,71,0.00,,,0.00,VWS V14.01,2013-02-05 15:03:00,
2013-02-05 09:04:00,25.3,17.2,29.83,South,180,0.0,8.0,71,0.00,,,0.00,VWS V14.01,2013-02-05 15:04:00,
2013-02-05 09:08:00,25.7,17.6,29.83,SSW,202,4.8,4.8,71,0.00,,,0.00,VWS V14.01,2013-02-05 15:08:00,
2013-02-05 09:09:00,25.7,17.3,29.82,South,180,0.0,4.8,70,0.00,,,0.00,VWS V14.01,2013-02-05 15:09:00,
2013-02-05 09:10:00,25.8,17.4,29.82,South,180,7.0,7.0,70,0.00,,,0.00,VWS V14.01,2013-02-05 15:10:00,
2013-02-05 09:13:00,26.2,17.8,29.83,South,180,0.0,8.4,70,0.00,,,0.00,VWS V14.01,2013-02-05 15:13:00,
2013-02-05 09:15:00,26.2,17.8,29.82,SW,225,4.8,6.2,70,0.00,,,0.00,VWS V14.01,2013-02-05 15:15:00,
2013-02-05 09:17:00,26.0,17.2,29.83,South,180,0.0,9.8,69,0.00,,,0.00,VWS V14.01,2013-02-05 15:17:00,
2013-02-05 09:18:00,26.2,17.4,29.82,South,180,0.0,0.0,69,0.00,,,0.00,VWS V14.01,2013-02-05 15:18:00,
2013-02-05 09:19:00,26.2,17.4,29.82,SSW,202,4.4,4.4,69,0.00,,,0.00,VWS V14.01,2013-02-05 15:19:00,
2013-02-05 09:20:00,26.2,17.1,29.82,SSW,202,3.0,3.0,68,0.00,,,0.00,VWS V14.01,2013-02-05 15:20:00,
2013-02-05 09:22:00,26.4,17.3,29.82,SW,225,4.8,4.8,68,0.00,,,0.00,VWS V14.01,2013-02-05 15:22:00,
2013-02-05 09:26:00,26.7,17.6,29.82,SSW,202,4.0,11.0,68,0.00,,,0.00,VWS V14.01,2013-02-05 15:26:00,
2013-02-05 09:30:00,26.7,17.2,29.82,SW,225,0.0,11.6,67,0.00,,,0.00,VWS V14.01,2013-02-05 15:30:00,
2013-02-05 09:32:00,26.7,17.2,29.82,SSW,202,3.0,4.4,67,0.00,,,0.00,VWS V14.01,2013-02-05 15:32:00,
2013-02-05 09:34:00,26.9,17.4,29.82,SW,225,0.0,3.0,67,0.00,,,0.00,VWS V14.01,2013-02-05 15:34:00,
2013-02-05 09:37:00,27.5,18.0,29.82,SW,225,0.0,0.0,67,0.00,,,0.00,VWS V14.01,2013-02-05 15:37:00,
2013-02-05 09:40:00,27.6,17.7,29.82,SW,225,9.8,9.8,66,0.00,,,0.00,VWS V14.01,2013-02-05 15:40:00,
2013-02-05 09:41:00,27.8,17.9,29.82,SSW,202,9.8,9.8,66,0.00,,,0.00,VWS V14.01,2013-02-05 15:41:00,
2013-02-05 09:42:00,27.5,17.6,29.82,SSE,158,4.0,9.8,66,0.00,,,0.00,VWS V14.01,2013-02-05 15:42:00,
2013-02-05 09:44:00,27.6,17.4,29.82,SSW,202,0.0,4.0,65,0.00,,,0.00,VWS V14.01,2013-02-05 15:44:00,
2013-02-05 09:45:00,27.6,17.4,29.82,SSW,202,0.0,0.0,65,0.00,,,0.00,VWS V14.01,2013-02-05 15:45:00,
2013-02-05 09:46:00,27.8,17.6,29.82,SW,225,2.2,4.0,65,0.00,,,0.00,VWS V14.01,2013-02-05 15:46:00,
2013-02-05 09:49:00,27.8,17.6,29.82,SW,225,10.2,10.2,65,0.00,,,0.00,VWS V14.01,2013-02-05 15:49:00,
2013-02-05 09:50:00,27.8,17.6,29.82,SSW,202,2.2,10.2,65,0.00,,,0.00,VWS V14.01,2013-02-05 15:50:00,
2013-02-05 09:52:00,27.8,17.6,29.82,SW,225,0.8,0.8,65,0.00,,,0.00,VWS V14.01,2013-02-05 15:52:00,
2013-02-05 09:54:00,27.8,17.6,29.82,South,180,0.0,0.0,65,0.00,,,0.00,VWS V14.01,2013-02-05 15:54:00,
2013-02-05 09:55:00,27.8,17.6,29.82,South,180,0.0,0.0,65,0.00,,,0.00,VWS V14.01,2013-02-05 15:55:00,
2013-02-05 09:57:00,27.8,17.6,29.82,SSW,202,3.4,3.4,65,0.00,,,0.00,VWS V14.01,2013-02-05 15:57:00,
2013-02-05 09:58:00,27.6,17.0,29.82,SW,225,0.0,3.4,64,0.00,,,0.00,VWS V14.01,2013-02-05 15:58:00,
2013-02-05 10:00:00,27.8,17.2,29.82,SSW,202,0.0,5.8,64,0.00,,,0.00,VWS V14.01,2013-02-05 16:00:00,
2013-02-05 10:02:00,28.5,17.9,29.82,South,180,14.2,14.2,64,0.00,,,0.00,VWS V14.01,2013-02-05 16:02:00,
2013-02-05 10:03:00,28.5,17.9,29.82,South,180,14.2,14.2,64,0.00,,,0.00,VWS V14.01,2013-02-05 16:03:00,
2013-02-05 10:06:00,28.9,18.3,29.81,WSW,248,7.6,9.2,64,0.00,,,0.00,VWS V14.01,2013-02-05 16:06:00,
2013-02-05 10:08:00,29.3,18.6,29.81,SW,225,0.0,7.6,64,0.00,,,0.00,VWS V14.01,2013-02-05 16:08:00,
2013-02-05 10:10:00,29.4,18.4,29.82,SW,225,4.0,4.0,63,0.00,,,0.00,VWS V14.01,2013-02-05 16:10:00,
2013-02-05 10:13:00,29.3,18.3,29.81,West,270,0.0,0.0,63,0.00,,,0.00,VWS V14.01,2013-02-05 16:13:00,
2013-02-05 10:14:00,29.6,18.6,29.81,West,270,0.0,0.0,63,0.00,,,0.00,VWS V14.01,2013-02-05 16:14:00,
2013-02-05 10:18:00,30.3,18.9,29.82,SW,225,0.0,0.0,62,0.00,,,0.00,VWS V14.01,2013-02-05 16:18:00,
2013-02-05 10:19:00,30.5,19.0,29.82,West,270,0.0,0.0,62,0.00,,,0.00,VWS V14.01,2013-02-05 16:19:00,
2013-02-05 10:20:00,30.3,18.9,29.82,West,270,7.0,7.0,62,0.00,,,0.00,VWS V14.01,2013-02-05 16:20:00,
2013-02-05 10:21:00,30.3,18.9,29.82,West,270,0.0,7.0,62,0.00,,,0.00,VWS V14.01,2013-02-05 16:21:00,
2013-02-05 10:25:00,30.5,18.7,29.82,West,270,2.6,14.2,61,0.00,,,0.00,VWS V14.01,2013-02-05 16:25:00,
2013-02-05 10:26:00,30.5,18.7,29.82,West,270,10.2,14.2,61,0.00,,,0.00,VWS V14.01,2013-02-05 16:26:00,
2013-02-05 10:30:00,30.9,19.0,29.82,SW,225,5.2,5.2,61,0.00,,,0.00,VWS V14.01,2013-02-05 16:30:00,
2013-02-05 10:31:00,31.1,19.2,29.81,WSW,248,0.0,5.2,61,0.00,,,0.00,VWS V14.01,2013-02-05 16:31:00,
2013-02-05 10:32:00,31.2,19.3,29.81,SW,225,0.0,5.2,61,0.00,,,0.00,VWS V14.01,2013-02-05 16:32:00,
2013-02-05 10:36:00,31.2,19.0,29.82,SSW,202,5.8,5.8,60,0.00,,,0.00,VWS V14.01,2013-02-05 16:36:00,
2013-02-05 10:37:00,30.9,18.7,29.81,West,270,0.8,5.8,60,0.00,,,0.00,VWS V14.01,2013-02-05 16:37:00,
2013-02-05 10:38:00,30.9,18.7,29.81,SSW,202,0.0,5.8,60,0.00,,,0.00,VWS V14.01,2013-02-05 16:38:00,
2013-02-05 10:41:00,31.2,19.0,29.82,SW,225,7.6,8.0,60,0.00,,BKN110,0.00,VWS V14.01,2013-02-05 16:41:00,
2013-02-05 10:42:00,31.2,18.5,29.82,SW,225,7.0,7.0,59,0.00,,BKN110,0.00,VWS V14.01,2013-02-05 16:42:00,
2013-02-05 10:44:00,31.1,18.5,29.82,SW,225,0.0,7.0,59,0.00,,BKN110,0.00,VWS V14.01,2013-02-05 16:44:00,
2013-02-05 10:46:00,30.9,18.3,29.82,SW,225,0.0,0.0,59,0.00,,BKN110,0.00,VWS V14.01,2013-02-05 16:46:00,
2013-02-05 10:48:00,30.9,18.3,29.82,SW,225,0.0,0.0,59,0.00,,BKN110,0.00,VWS V14.01,2013-02-05 16:48:00,
2013-02-05 10:50:00,30.9,18.3,29.83,SW,225,13.8,13.8,59,0.00,,BKN110,0.00,VWS V14.01,2013-02-05 16:50:00,
2013-02-05 10:53:00,30.7,18.1,29.83,SSW,202,0.0,3.0,59,0.00,,BKN110,0.00,VWS V14.01,2013-02-05 16:53:00,
2013-02-05 10:56:00,31.1,18.5,29.83,West,270,6.2,6.2,59,0.00,,BKN110,0.00,VWS V14.01,2013-02-05 16:56:00,
2013-02-05 10:57:00,31.4,19.1,29.83,WSW,248,6.6,6.6,60,0.00,,BKN110,0.00,VWS V14.01,2013-02-05 16:57:00,
2013-02-05 11:00:00,31.6,19.3,29.83,West,270,5.2,7.6,60,0.00,,BKN110,0.00,VWS V14.01,2013-02-05 17:00:00,
2013-02-05 11:02:00,32.0,19.7,29.83,West,270,4.8,4.8,60,0.00,,BKN110,0.00,VWS V14.01,2013-02-05 17:02:00,
2013-02-05 11:03:00,32.1,19.8,29.83,SW,225,10.2,10.2,60,0.00,,BKN110,0.00,VWS V14.01,2013-02-05 17:03:00,
2013-02-05 11:04:00,32.1,19.8,29.84,West,270,5.8,10.2,60,0.00,,BKN110,0.00,VWS V14.01,2013-02-05 17:04:00,
2013-02-05 11:07:00,32.1,19.4,29.83,North,0,10.6,10.6,59,0.00,,BKN110,0.00,VWS V14.01,2013-02-05 17:07:00,
2013-02-05 11:08:00,32.1,19.4,29.83,West,270,4.0,4.0,59,0.00,,BKN110,0.00,VWS V14.01,2013-02-05 17:08:00,
2013-02-05 11:10:00,32.5,19.8,29.83,WSW,248,5.2,9.2,59,0.00,,BKN110,0.00,VWS V14.01,2013-02-05 17:10:00,
2013-02-05 11:15:00,32.5,19.4,29.83,West,270,10.2,10.2,58,0.00,,BKN110,0.00,VWS V14.01,2013-02-05 17:15:00,
2013-02-05 11:16:00,32.7,19.6,29.83,WSW,248,14.2,14.2,58,0.00,,BKN110,0.00,VWS V14.01,2013-02-05 17:16:00,
2013-02-05 11:20:00,32.3,18.8,29.83,WSW,248,4.8,4.8,57,0.00,,BKN110,0.00,VWS V14.01,2013-02-05 17:20:00,
2013-02-05 11:21:00,32.5,19.0,29.83,West,270,5.8,5.8,57,0.00,,BKN110,0.00,VWS V14.01,2013-02-05 17:21:00,
2013-02-05 11:22:00,32.7,19.2,29.83,West,270,0.0,5.8,57,0.00,,BKN110,0.00,VWS V14.01,2013-02-05 17:22:00,
2013-02-05 11:25:00,33.0,19.9,29.83,West,270,8.8,8.8,58,0.00,,BKN110,0.00,VWS V14.01,2013-02-05 17:25:00,
2013-02-05 11:26:00,33.2,20.0,29.83,WSW,248,10.2,10.2,58,0.00,,BKN110,0.00,VWS V14.01,2013-02-05 17:26:00,
2013-02-05 11:30:00,33.2,19.6,29.84,WSW,248,5.2,5.2,57,0.00,,BKN110,0.00,VWS V14.01,2013-02-05 17:30:00,
2013-02-05 11:31:00,33.2,19.6,29.84,WSW,248,10.2,10.2,57,0.00,,BKN110,0.00,VWS V14.01,2013-02-05 17:31:00,
2013-02-05 11:36:00,33.8,20.2,29.84,West,270,4.8,11.6,57,0.00,,BKN110,0.00,VWS V14.01,2013-02-05 17:36:00,
2013-02-05 11:37:00,33.6,20.0,29.84,West,270,2.2,4.8,57,0.00,,BKN110,0.00,VWS V14.01,2013-02-05 17:37:00,
2013-02-05 11:40:00,33.4,19.8,29.84,West,270,5.2,10.6,57,0.00,,FEW018,0.00,VWS V14.01,2013-02-05 17:40:00,
2013-02-05 11:41:00,33.6,19.6,29.84,WSW,248,8.0,8.0,56,0.00,,FEW018,0.00,VWS V14.01,2013-02-05 17:41:00,
2013-02-05 11:42:00,33.6,19.6,29.84,West,270,5.2,8.0,56,0.00,,FEW018,0.00,VWS V14.01,2013-02-05 17:42:00,
2013-02-05 11:44:00,33.9,19.9,29.83,NNW,338,0.0,5.2,56,0.00,,FEW018,0.00,VWS V14.01,2013-02-05 17:44:00,
2013-02-05 11:47:00,34.5,20.9,29.83,SW,225,0.0,6.6,57,0.00,,FEW018,0.00,VWS V14.01,2013-02-05 17:47:00,
2013-02-05 11:49:00,34.5,20.4,29.83,WSW,248,16.4,16.4,56,0.00,,FEW018,0.00,VWS V14.01,2013-02-05 17:49:00,
2013-02-05 11:50:00,34.5,20.4,29.83,WSW,248,4.4,4.4,56,0.00,,FEW018,0.00,VWS V14.01,2013-02-05 17:50:00,
2013-02-05 11:54:00,34.1,20.1,29.83,SW,225,0.0,7.6,56,0.00,,FEW018,0.00,VWS V14.01,2013-02-05 17:54:00,
2013-02-05 11:56:00,34.3,20.2,29.83,WSW,248,3.4,3.4,56,0.00,,FEW018,0.00,VWS V14.01,2013-02-05 17:56:00,
2013-02-05 11:58:00,34.5,20.4,29.83,WNW,292,4.8,4.8,56,0.00,,FEW018,0.00,VWS V14.01,2013-02-05 17:58:00,
2013-02-05 12:00:00,34.7,20.6,29.83,NNW,338,5.2,8.0,56,0.02,,FEW018,0.02,VWS V14.01,2013-02-05 18:00:00,
2013-02-05 12:02:00,34.8,20.7,29.83,West,270,6.6,6.6,56,0.02,,FEW018,0.02,VWS V14.01,2013-02-05 18:02:00,
2013-02-05 12:04:00,35.0,20.9,29.83,West,270,7.6,7.6,56,0.02,,FEW018,0.02,VWS V14.01,2013-02-05 18:04:00,
2013-02-05 12:06:00,35.0,20.5,29.83,WSW,248,11.6,11.6,55,0.02,,FEW018,0.02,VWS V14.01,2013-02-05 18:06:00,
2013-02-05 12:10:00,35.0,20.5,29.83,WNW,292,4.4,17.0,55,0.02,,FEW018,0.02,VWS V14.01,2013-02-05 18:10:00,
2013-02-05 12:11:00,35.0,20.5,29.83,WNW,292,4.4,4.4,55,0.02,,FEW018,0.02,VWS V14.01,2013-02-05 18:11:00,
2013-02-05 12:12:00,34.7,20.2,29.83,West,270,2.2,5.8,55,0.02,,FEW018,0.02,VWS V14.01,2013-02-05 18:12:00,
2013-02-05 12:14:00,34.8,20.3,29.83,NNW,338,0.0,2.2,55,0.02,,FEW018,0.02,VWS V14.01,2013-02-05 18:14:00,
2013-02-05 12:16:00,35.2,20.7,29.83,WNW,292,0.0,9.8,55,0.02,,FEW018,0.02,VWS V14.01,2013-02-05 18:16:00,
2013-02-05 12:18:00,35.2,20.7,29.83,West,270,8.4,8.4,55,0.02,,FEW018,0.02,VWS V14.01,2013-02-05 18:18:00,
2013-02-05 12:19:00,35.2,20.7,29.83,WNW,292,5.8,5.8,55,0.02,,FEW018,0.02,VWS V14.01,2013-02-05 18:19:00,
2013-02-05 12:20:00,35.2,20.7,29.83,WSW,248,0.0,6.6,55,0.02,,FEW018,0.02,VWS V14.01,2013-02-05 18:20:00,
2013-02-05 12:22:00,35.2,20.7,29.83,WSW,248,0.0,0.0,55,0.02,,FEW018,0.02,VWS V14.01,2013-02-05 18:22:00,
2013-02-05 12:27:00,35.2,20.7,29.83,WNW,292,9.8,9.8,55,0.02,,FEW018,0.02,VWS V14.01,2013-02-05 18:27:00,
2013-02-05 12:28:00,35.6,21.0,29.83,NW,315,0.0,9.8,55,0.02,,FEW018,0.02,VWS V14.01,2013-02-05 18:28:00,
2013-02-05 12:29:00,35.6,21.0,29.83,North,0,0.0,0.0,55,0.02,,FEW018,0.02,VWS V14.01,2013-02-05 18:29:00,
2013-02-05 12:30:00,35.9,21.3,29.83,WSW,248,14.6,14.6,55,0.02,,FEW018,0.02,VWS V14.01,2013-02-05 18:30:00,
2013-02-05 12:34:00,35.2,20.7,29.83,West,270,12.4,12.4,55,0.02,,FEW018,0.02,VWS V14.01,2013-02-05 18:34:00,
2013-02-05 12:35:00,35.2,20.7,29.83,SSW,202,0.0,0.0,55,0.02,,FEW018,0.02,VWS V14.01,2013-02-05 18:35:00,
2013-02-05 12:40:00,33.9,19.0,29.84,SW,225,0.0,13.8,54,0.02,,BKN022,0.02,VWS V14.01,2013-02-05 18:40:00,
2013-02-05 12:45:00,34.1,20.1,29.84,West,270,0.0,0.0,56,0.02,,BKN022,0.02,VWS V14.01,2013-02-05 18:45:00,
2013-02-05 12:46:00,34.1,20.1,29.84,WNW,292,3.0,3.0,56,0.02,,BKN022,0.02,VWS V14.01,2013-02-05 18:46:00,
2013-02-05 12:48:00,34.1,20.5,29.84,West,270,8.8,8.8,57,0.02,,BKN022,0.02,VWS V14.01,2013-02-05 18:48:00,
2013-02-05 12:53:00,34.1,20.5,29.85,WNW,292,0.0,0.0,57,0.02,,,0.02,VWS V14.01,2013-02-05 18:53:00,
2013-02-05 12:54:00,34.1,20.5,29.85,WSW,248,13.8,13.8,57,0.02,,,0.02,VWS V14.01,2013-02-05 18:54:00,
2013-02-05 12:56:00,33.9,20.3,29.85,North,0,0.0,0.0,57,0.02,,,0.02,VWS V14.01,2013-02-05 18:56:00,
2013-02-05 13:00:00,33.8,20.2,29.85,SSW,202,8.4,11.0,57,0.02,,,0.02,VWS V14.01,2013-02-05 19:00:00,
2013-02-05 13:02:00,33.4,19.8,29.85,NNW,338,4.0,8.4,57,0.00,,,0.02,VWS V14.01,2013-02-05 19:02:00,
2013-02-05 13:03:00,33.4,20.2,29.85,SSW,202,4.4,4.4,58,0.00,,,0.02,VWS V14.01,2013-02-05 19:03:00,
2013-02-05 13:05:00,33.4,20.2,29.85,NNW,338,2.6,6.2,58,0.00,,,0.02,VWS V14.01,2013-02-05 19:05:00,
2013-02-05 13:06:00,33.4,20.2,29.85,NNW,338,0.0,0.0,58,0.00,,,0.02,VWS V14.01,2013-02-05 19:06:00,
2013-02-05 13:08:00,33.2,20.0,29.85,North,0,0.0,0.0,58,0.00,,,0.02,VWS V14.01,2013-02-05 19:08:00,
2013-02-05 13:11:00,33.2,20.4,29.85,North,0,0.0,8.4,59,0.00,,,0.02,VWS V14.01,2013-02-05 19:11:00,
2013-02-05 13:12:00,33.0,20.2,29.85,North,0,0.0,8.4,59,0.00,,,0.02,VWS V14.01,2013-02-05 19:12:00,
2013-02-05 13:13:00,32.9,20.2,29.85,SSW,202,8.0,8.0,59,0.00,,,0.02,VWS V14.01,2013-02-05 19:13:00,
2013-02-05 13:14:00,32.9,20.2,29.85,North,0,3.4,8.0,59,0.00,,,0.02,VWS V14.01,2013-02-05 19:14:00,
2013-02-05 13:19:00,32.9,20.5,29.85,SSW,202,0.0,11.0,60,0.00,,,0.02,VWS V14.01,2013-02-05 19:19:00,
2013-02-05 13:21:00,32.7,20.4,29.85,North,0,6.6,6.6,60,0.00,,,0.02,VWS V14.01,2013-02-05 19:21:00,
2013-02-05 13:24:00,32.9,20.5,29.85,SSW,202,0.0,0.0,60,0.00,,,0.02,VWS V14.01,2013-02-05 19:24:00,
2013-02-05 13:26:00,32.9,20.9,29.85,North,0,4.8,4.8,61,0.00,,,0.02,VWS V14.01,2013-02-05 19:26:00,
2013-02-05 13:30:00,32.9,20.9,29.85,SSW,202,9.8,9.8,61,0.00,,,0.02,VWS V14.01,2013-02-05 19:30:00,
2013-02-05 13:31:00,32.9,20.9,29.85,SSW,202,0.0,9.8,61,0.00,,,0.02,VWS V14.01,2013-02-05 19:31:00,
2013-02-05 13:33:00,32.9,20.9,29.85,SW,225,12.8,12.8,61,0.00,,,0.02,VWS V14.01,2013-02-05 19:33:00,
2013-02-05 13:36:00,32.9,20.9,29.85,SSW,202,0.0,0.0,61,0.00,,,0.02,VWS V14.01,2013-02-05 19:36:00,
2013-02-05 13:38:00,32.9,20.9,29.85,SSW,202,5.8,5.8,61,0.00,,,0.02,VWS V14.01,2013-02-05 19:38:00,
2013-02-05 13:41:00,32.9,21.3,29.85,NNW,338,7.0,7.0,62,0.00,,SCT110,0.02,VWS V14.01,2013-02-05 19:41:00,
2013-02-05 13:42:00,32.9,21.3,29.85,SSW,202,0.0,7.0,62,0.00,,SCT110,0.02,VWS V14.01,2013-02-05 19:42:00,
2013-02-05 13:43:00,32.9,21.3,29.85,SW,225,0.0,0.0,62,0.00,,SCT110,0.02,VWS V14.01,2013-02-05 19:43:00,
2013-02-05 13:47:00,33.0,21.4,29.85,SSW,202,0.0,8.0,62,0.00,,SCT110,0.02,VWS V14.01,2013-02-05 19:47:00,
2013-02-05 13:48:00,33.0,21.4,29.86,North,0,0.0,0.0,62,0.00,,SCT110,0.02,VWS V14.01,2013-02-05 19:48:00,
2013-02-05 13:49:00,33.2,21.6,29.86,North,0,0.0,0.0,62,0.00,,SCT110,0.02,VWS V14.01,2013-02-05 19:49:00,
2013-02-05 13:50:00,33.2,21.6,29.86,NNW,338,2.2,2.2,62,0.00,,SCT110,0.02,VWS V14.01,2013-02-05 19:50:00,
2013-02-05 13:52:00,33.2,21.6,29.86,SSW,202,0.0,0.0,62,0.00,,SCT110,0.02,VWS V14.01,2013-02-05 19:52:00,
2013-02-05 13:55:00,33.4,21.8,29.86,SW,225,10.2,10.2,62,0.00,,SCT110,0.02,VWS V14.01,2013-02-05 19:55:00,
2013-02-05 13:56:00,33.4,21.8,29.85,West,270,0.0,10.2,62,0.00,,SCT110,0.02,VWS V14.01,2013-02-05 19:56:00,
2013-02-05 13:57:00,33.4,21.8,29.86,WNW,292,6.6,6.6,62,0.00,,SCT110,0.02,VWS V14.01,2013-02-05 19:57:00,
2013-02-05 14:00:00,33.9,22.3,29.85,West,270,6.2,7.0,62,0.00,,SCT110,0.02,VWS V14.01,2013-02-05 20:00:00,
2013-02-05 14:01:00,33.9,22.3,29.86,SW,225,0.0,6.2,62,0.00,,SCT110,0.02,VWS V14.01,2013-02-05 20:01:00,
2013-02-05 14:02:00,33.9,22.3,29.85,West,270,2.6,6.2,62,0.00,,SCT110,0.02,VWS V14.01,2013-02-05 20:02:00,
2013-02-05 14:06:00,34.1,22.5,29.85,West,270,0.0,0.0,62,0.00,,SCT110,0.02,VWS V14.01,2013-02-05 20:06:00,
2013-02-05 14:08:00,34.7,23.0,29.86,West,270,3.0,5.2,62,0.00,,SCT110,0.02,VWS V14.01,2013-02-05 20:08:00,
2013-02-05 14:11:00,34.7,23.0,29.86,West,270,8.0,8.0,62,0.00,,SCT110,0.02,VWS V14.01,2013-02-05 20:11:00,
2013-02-05 14:12:00,34.7,23.0,29.86,WNW,292,0.0,8.0,62,0.00,,SCT110,0.02,VWS V14.01,2013-02-05 20:12:00,
2013-02-05 14:14:00,34.7,23.0,29.86,NNW,338,0.0,2.6,62,0.00,,SCT110,0.02,VWS V14.01,2013-02-05 20:14:00,
2013-02-05 14:18:00,34.7,23.0,29.86,North,0,6.6,9.8,62,0.00,,SCT110,0.02,VWS V14.01,2013-02-05 20:18:00,
2013-02-05 14:21:00,34.5,22.8,29.87,North,0,4.4,9.2,62,0.00,,SCT110,0.02,VWS V14.01,2013-02-05 20:21:00,
2013-02-05 14:24:00,34.5,22.8,29.87,NNW,338,0.0,0.0,62,0.00,,SCT110,0.02,VWS V14.01,2013-02-05 20:24:00,
2013-02-05 14:25:00,34.3,22.6,29.87,NNW,338,7.6,7.6,62,0.00,,SCT110,0.02,VWS V14.01,2013-02-05 20:25:00,
2013-02-05 14:26:00,34.3,22.6,29.87,NNW,338,0.0,0.0,62,0.00,,SCT110,0.02,VWS V14.01,2013-02-05 20:26:00,
2013-02-05 14:29:00,34.7,23.0,29.86,West,270,2.2,2.2,62,0.00,,SCT110,0.02,VWS V14.01,2013-02-05 20:29:00,
2013-02-05 14:31:00,34.7,23.4,29.87,West,270,0.0,8.4,63,0.00,,SCT110,0.02,VWS V14.01,2013-02-05 20:31:00,
2013-02-05 14:32:00,34.7,23.4,29.87,West,270,0.0,8.4,63,0.00,,SCT110,0.02,VWS V14.01,2013-02-05 20:32:00,
2013-02-05 14:34:00,34.8,23.5,29.86,WSW,248,14.2,14.2,63,0.00,,SCT110,0.02,VWS V14.01,2013-02-05 20:34:00,
2013-02-05 14:37:00,35.0,23.7,29.87,WNW,292,3.4,12.4,63,0.00,,SCT110,0.02,VWS V14.01,2013-02-05 20:37:00,
2013-02-05 14:38:00,35.2,23.9,29.87,NW,315,8.8,12.4,63,0.00,,SCT110,0.02,VWS V14.01,2013-02-05 20:38:00,
2013-02-05 14:43:00,35.2,23.9,29.87,SW,225,0.0,9.8,63,0.00,,SCT110,0.02,VWS V14.01,2013-02-05 20:43:00,
2013-02-05 14:45:00,35.4,24.1,29.87,NNW,338,8.4,8.4,63,0.00,,SCT110,0.02,VWS V14.01,2013-02-05 20:45:00,
2013-02-05 14:46:00,35.4,24.1,29.87,North,0,0.0,0.0,63,0.00,,SCT110,0.02,VWS V14.01,2013-02-05 20:46:00,
2013-02-05 14:50:00,35.7,24.4,29.87,NNW,338,4.8,10.6,63,0.00,,OVC031,0.02,VWS V14.01,2013-02-05 20:50:00,
2013-02-05 14:51:00,35.7,24.4,29.88,West,270,5.8,5.8,63,0.00,,OVC031,0.02,VWS V14.01,2013-02-05 20:51:00,
2013-02-05 14:53:00,35.6,23.9,29.88,SW,225,9.2,9.8,62,0.00,,OVC031,0.02,VWS V14.01,2013-02-05 20:53:00,
2013-02-05 14:56:00,35.7,24.0,29.88,West,270,4.8,8.8,62,0.00,,OVC031,0.02,VWS V14.01,2013-02-05 20:56:00,
2013-02-05 14:59:00,35.6,23.9,29.88,West,270,7.0,7.0,62,0.00,,OVC031,0.02,VWS V14.01,2013-02-05 20:59:00,
2013-02-05 15:01:00,35.4,23.7,29.88,West,270,5.8,5.8,62,0.00,,OVC031,0.02,VWS V14.01,2013-02-05 21:01:00,
2013-02-05 15:04:00,35.7,24.4,29.88,NNW,338,0.0,0.0,63,0.00,,OVC031,0.02,VWS V14.01,2013-02-05 21:04:00,
2013-02-05 15:05:00,35.7,24.4,29.89,WNW,292,11.0,11.0,63,0.00,,OVC031,0.02,VWS V14.01,2013-02-05 21:05:00,
2013-02-05 15:06:00,35.9,24.5,29.89,West,270,7.6,7.6,63,0.00,,OVC031,0.02,VWS V14.01,2013-02-05 21:06:00,
2013-02-05 15:10:00,35.6,24.3,29.89,West,270,10.6,10.6,63,0.00,,OVC031,0.02,VWS V14.01,2013-02-05 21:10:00,
2013-02-05 15:11:00,35.7,24.4,29.89,NNW,338,1.6,10.6,63,0.00,,OVC031,0.02,VWS V14.01,2013-02-05 21:11:00,
2013-02-05 15:12:00,35.4,24.1,29.89,NNW,338,5.8,10.6,63,0.00,,OVC031,0.02,VWS V14.01,2013-02-05 21:12:00,
2013-02-05 15:16:00,35.2,23.9,29.90,NNW,338,24.6,24.6,63,0.00,,OVC031,0.02,VWS V14.01,2013-02-05 21:16:00,
2013-02-05 15:18:00,35.0,23.7,29.90,North,0,5.8,24.6,63,0.00,,OVC031,0.02,VWS V14.01,2013-02-05 21:18:00,
2013-02-05 15:19:00,35.0,23.3,29.90,NNW,338,8.8,8.8,62,0.00,,OVC031,0.02,VWS V14.01,2013-02-05 21:19:00,
2013-02-05 15:23:00,34.8,23.1,29.90,North,0,8.4,17.8,62,0.00,,OVC031,0.02,VWS V14.01,2013-02-05 21:23:00,
2013-02-05 15:24:00,34.7,23.0,29.90,NNW,338,2.6,17.8,62,0.00,,OVC031,0.02,VWS V14.01,2013-02-05 21:24:00,
2013-02-05 15:26:00,34.7,23.0,29.90,NNW,338,8.0,8.0,62,0.00,,OVC031,0.02,VWS V14.01,2013-02-05 21:26:00,
2013-02-05 15:29:00,34.7,23.4,29.91,West,270,5.2,7.6,63,0.00,,OVC031,0.02,VWS V14.01,2013-02-05 21:29:00,
2013-02-05 15:32:00,34.7,23.4,29.90,NNW,338,7.0,7.0,63,0.00,,OVC031,0.02,VWS V14.01,2013-02-05 21:32:00,
2013-02-05 15:33:00,34.7,23.4,29.91,NNW,338,14.2,14.2,63,0.00,,OVC031,0.02,VWS V14.01,2013-02-05 21:33:00,
2013-02-05 15:35:00,34.5,23.6,29.91,North,0,4.4,17.8,64,0.00,,OVC031,0.02,VWS V14.01,2013-02-05 21:35:00,
2013-02-05 15:36:00,34.5,23.6,29.91,NNW,338,8.8,8.8,64,0.00,,OVC031,0.02,VWS V14.01,2013-02-05 21:36:00,
2013-02-05 15:39:00,34.5,23.6,29.91,NNW,338,6.6,11.0,64,0.00,,BKN021,0.02,VWS V14.01,2013-02-05 21:39:00,
2013-02-05 15:40:00,34.5,23.6,29.91,North,0,8.4,8.4,64,0.00,,BKN021,0.02,VWS V14.01,2013-02-05 21:40:00,
2013-02-05 15:42:00,34.3,23.4,29.91,North,0,11.0,11.0,64,0.00,,BKN021,0.02,VWS V14.01,2013-02-05 21:42:00,
2013-02-05 15:46:00,34.1,23.2,29.91,NNW,338,8.0,8.0,64,0.00,,BKN021,0.02,VWS V14.01,2013-02-05 21:46:00,
2013-02-05 15:47:00,34.1,23.2,29.91,NNW,338,6.6,8.0,64,0.00,,BKN021,0.02,VWS V14.01,2013-02-05 21:47:00,
2013-02-05 15:50:00,33.9,23.0,29.92,NNW,338,4.8,11.6,64,0.00,,BKN020,0.02,VWS V14.01,2013-02-05 21:50:00,
2013-02-05 15:55:00,33.9,23.0,29.91,NNE,22,11.0,11.0,64,0.00,,BKN020,0.02,VWS V14.01,2013-02-05 21:55:00,
2013-02-05 15:56:00,33.9,23.0,29.91,NNW,338,6.6,11.0,64,0.00,,BKN020,0.02,VWS V14.01,2013-02-05 21:56:00,
2013-02-05 15:57:00,33.9,23.0,29.91,NNW,338,4.8,6.6,64,0.00,,BKN020,0.02,VWS V14.01,2013-02-05 21:57:00,
2013-02-05 16:00:00,33.9,23.4,29.92,NNW,338,14.6,14.6,65,0.00,,BKN020,0.02,VWS V14.01,2013-02-05 22:00:00,
2013-02-05 16:02:00,34.1,23.6,29.92,NNW,338,9.2,14.6,65,0.00,,BKN020,0.02,VWS V14.01,2013-02-05 22:02:00,
2013-02-05 16:03:00,34.1,23.6,29.92,NNW,338,11.0,11.0,65,0.00,,BKN020,0.02,VWS V14.01,2013-02-05 22:03:00,
2013-02-05 16:08:00,34.1,23.6,29.91,NNW,338,12.4,12.4,65,0.00,,BKN020,0.02,VWS V14.01,2013-02-05 22:08:00,
2013-02-05 16:09:00,34.1,23.6,29.91,SSW,202,4.8,4.8,65,0.00,,BKN020,0.02,VWS V14.01,2013-02-05 22:09:00,
2013-02-05 16:13:00,34.1,23.6,29.92,NNW,338,1.6,1.6,65,0.00,,BKN020,0.02,VWS V14.01,2013-02-05 22:13:00,
2013-02-05 16:14:00,34.3,23.8,29.92,NNW,338,4.8,4.8,65,0.00,,BKN020,0.02,VWS V14.01,2013-02-05 22:14:00,
2013-02-05 16:16:00,34.3,23.8,29.92,North,0,7.6,7.6,65,0.00,,BKN020,0.02,VWS V14.01,2013-02-05 22:16:00,
2013-02-05 16:18:00,34.3,23.8,29.92,NNW,338,9.8,9.8,65,0.00,,BKN020,0.02,VWS V14.01,2013-02-05 22:18:00,
2013-02-05 16:22:00,34.3,23.8,29.92,North,0,6.2,7.0,65,0.00,,BKN020,0.02,VWS V14.01,2013-02-05 22:22:00,
2013-02-05 16:24:00,34.5,24.0,29.92,North,0,8.4,11.0,65,0.00,,BKN020,0.02,VWS V14.01,2013-02-05 22:24:00,
2013-02-05 16:26:00,34.3,23.8,29.92,NNW,338,9.8,9.8,65,0.00,,BKN020,0.02,VWS V14.01,2013-02-05 22:26:00,
2013-02-05 16:27:00,34.3,23.8,29.92,NNW,338,3.0,9.8,65,0.00,,BKN020,0.02,VWS V14.01,2013-02-05 22:27:00,
2013-02-05 16:30:00,34.3,23.8,29.93,NNW,338,8.0,8.0,65,0.00,,BKN020,0.02,VWS V14.01,2013-02-05 22:30:00,
2013-02-05 16:34:00,34.3,23.8,29.93,North,0,7.6,12.8,65,0.00,,BKN020,0.02,VWS V14.01,2013-02-05 22:34:00,
2013-02-05 16:35:00,34.3,23.8,29.93,NNW,338,9.2,9.2,65,0.00,,BKN020,0.02,VWS V14.01,2013-02-05 22:35:00,
2013-02-05 16:36:00,34.3,23.8,29.93,North,0,7.0,9.2,65,0.00,,BKN020,0.02,VWS V14.01,2013-02-05 22:36:00,
2013-02-05 16:40:00,34.3,23.8,29.93,SW,225,0.0,0.0,65,0.00,,OVC022,0.02,VWS V14.01,2013-02-05 22:40:00,
2013-02-05 16:41:00,34.3,23.8,29.93,NNW,338,12.0,12.0,65,0.00,,OVC022,0.02,VWS V14.01,2013-02-05 22:41:00,
2013-02-05 16:42:00,34.3,23.8,29.93,NNW,338,8.8,12.0,65,0.00,,OVC022,0.02,VWS V14.01,2013-02-05 22:42:00,
2013-02-05 16:47:00,34.1,23.6,29.94,North,0,4.4,4.4,65,0.00,,OVC022,0.02,VWS V14.01,2013-02-05 22:47:00,
2013-02-05 16:49:00,34.1,23.6,29.94,North,0,0.0,7.0,65,0.00,,OVC022,0.02,VWS V14.01,2013-02-05 22:49:00,
2013-02-05 16:50:00,34.1,23.6,29.94,NNW,338,0.0,0.0,65,0.00,,OVC022,0.02,VWS V14.01,2013-02-05 22:50:00,
2013-02-05 16:52:00,34.1,23.6,29.94,North,0,5.2,5.2,65,0.00,,OVC022,0.02,VWS V14.01,2013-02-05 22:52:00,
2013-02-05 16:54:00,34.1,23.6,29.95,North,0,6.6,6.6,65,0.00,,OVC022,0.02,VWS V14.01,2013-02-05 22:54:00,
2013-02-05 16:56:00,34.1,23.6,29.95,NNW,338,0.0,6.6,65,0.00,,OVC022,0.02,VWS V14.01,2013-02-05 22:56:00,
2013-02-05 16:57:00,33.9,23.8,29.95,North,0,0.0,0.0,66,0.00,,OVC022,0.02,VWS V14.01,2013-02-05 22:57:00,
2013-02-05 17:00:00,34.1,24.0,29.95,North,0,4.8,4.8,66,0.00,,OVC022,0.02,VWS V14.01,2013-02-05 23:00:00,
2013-02-05 17:01:00,34.1,24.0,29.95,NNW,338,5.8,5.8,66,0.00,,OVC022,0.02,VWS V14.01,2013-02-05 23:01:00,
2013-02-05 17:02:00,34.1,24.0,29.95,North,0,0.0,0.0,66,0.00,,OVC022,0.02,VWS V14.01,2013-02-05 23:02:00,
2013-02-05 17:03:00,34.1,24.0,29.95,NNW,338,0.0,0.0,66,0.00,,OVC022,0.02,VWS V14.01,2013-02-05 23:03:00,
2013-02-05 17:08:00,34.1,24.0,29.94,North,0,0.0,4.4,66,0.00,,OVC022,0.02,VWS V14.01,2013-02-05 23:08:00,
2013-02-05 17:11:00,34.1,24.0,29.95,NNW,338,4.4,12.0,66,0.00,,OVC022,0.02,VWS V14.01,2013-02-05 23:11:00,
2013-02-05 17:13:00,33.9,23.8,29.95,North,0,13.4,13.4,66,0.00,,OVC022,0.02,VWS V14.01,2013-02-05 23:13:00,
2013-02-05 17:14:00,33.9,24.1,29.95,NNW,338,4.4,13.4,67,0.00,,OVC022,0.02,VWS V14.01,2013-02-05 23:14:00,
2013-02-05 17:18:00,34.1,24.3,29.95,NNW,338,2.6,2.6,67,0.00,,OVC022,0.02,VWS V14.01,2013-02-05 23:18:00,
2013-02-05 17:20:00,34.1,24.3,29.95,North,0,7.0,7.0,67,0.00,,OVC022,0.02,VWS V14.01,2013-02-05 23:20:00,
2013-02-05 17:24:00,34.1,24.3,29.95,North,0,7.0,7.0,67,0.00,,OVC022,0.02,VWS V14.01,2013-02-05 23:24:00,
2013-02-05 17:26:00,34.1,24.3,29.95,NNW,338,0.0,7.6,67,0.00,,OVC022,0.02,VWS V14.01,2013-02-05 23:26:00,
2013-02-05 17:27:00,34.1,24.3,29.95,NNW,338,0.0,0.0,67,0.00,,OVC022,0.02,VWS V14.01,2013-02-05 23:27:00,
2013-02-05 17:31:00,34.1,24.3,29.95,NNW,338,0.0,9.2,67,0.00,,OVC022,0.02,VWS V14.01,2013-02-05 23:31:00,
2013-02-05 17:34:00,34.1,24.3,29.96,SSW,202,2.6,6.2,67,0.00,,OVC022,0.02,VWS V14.01,2013-02-05 23:34:00,
2013-02-05 17:36:00,34.1,24.3,29.95,SSW,202,0.0,2.6,67,0.00,,OVC022,0.02,VWS V14.01,2013-02-05 23:36:00,
2013-02-05 17:39:00,34.1,24.3,29.96,NNW,338,0.0,4.4,67,0.00,,OVC030,0.02,VWS V14.01,2013-02-05 23:39:00,
2013-02-05 17:41:00,34.1,24.3,29.96,NNW,338,0.0,0.0,67,0.00,,OVC030,0.02,VWS V14.01,2013-02-05 23:41:00,
2013-02-05 17:43:00,34.1,24.3,29.96,North,0,0.0,0.0,67,0.00,,OVC030,0.02,VWS V14.01,2013-02-05 23:43:00,
2013-02-05 17:45:00,34.1,24.3,29.96,North,0,0.0,8.8,67,0.00,,OVC030,0.02,VWS V14.01,2013-02-05 23:45:00,
2013-02-05 17:48:00,34.1,24.3,29.96,NNW,338,0.0,0.0,67,0.00,,OVC030,0.02,VWS V14.01,2013-02-05 23:48:00,
2013-02-05 17:49:00,34.1,24.3,29.96,North,0,4.8,4.8,67,0.00,,OVC030,0.02,VWS V14.01,2013-02-05 23:49:00,
2013-02-05 17:50:00,34.1,24.3,29.96,SSW,202,0.0,4.8,67,0.00,,OVC030,0.02,VWS V14.01,2013-02-05 23:50:00,
2013-02-05 17:54:00,34.1,24.3,29.96,North,0,0.0,0.0,67,0.00,,OVC030,0.02,VWS V14.01,2013-02-05 23:54:00,
2013-02-05 17:56:00,34.1,24.3,29.96,North,0,0.0,0.0,67,0.00,,OVC030,0.02,VWS V14.01,2013-02-05 23:56:00,
2013-02-05 18:00:00,34.1,24.3,29.96,SSW,202,0.0,0.0,67,0.00,,OVC030,0.02,VWS V14.01,2013-02-06 00:00:00,
2013-02-05 18:02:00,34.1,24.3,29.96,NNW,338,0.0,3.4,67,0.00,,OVC030,0.02,VWS V14.01,2013-02-06 00:02:00,
2013-02-05 18:03:00,34.1,24.3,29.96,North,0,0.0,0.0,67,0.00,,OVC030,0.02,VWS V14.01,2013-02-06 00:03:00,
2013-02-05 18:05:00,34.1,24.3,29.96,NNW,338,0.0,0.0,67,0.00,,OVC030,0.02,VWS V14.01,2013-02-06 00:05:00,
2013-02-05 18:08:00,34.1,24.3,29.96,SSW,202,2.6,3.0,67,0.00,,OVC030,0.02,VWS V14.01,2013-02-06 00:08:00,
2013-02-05 18:13:00,34.1,24.3,29.97,North,0,0.0,0.0,67,0.00,,OVC034,0.02,VWS V14.01,2013-02-06 00:13:00,
2013-02-05 18:14:00,34.1,24.3,29.97,NNW,338,0.0,0.0,67,0.00,,OVC034,0.02,VWS V14.01,2013-02-06 00:14:00,
2013-02-05 18:16:00,34.1,24.3,29.96,SSW,202,0.0,0.0,67,0.00,,OVC034,0.02,VWS V14.01,2013-02-06 00:16:00,
2013-02-05 18:20:00,34.1,24.3,29.96,North,0,8.0,8.0,67,0.00,,OVC034,0.02,VWS V14.01,2013-02-06 00:20:00,
2013-02-05 18:21:00,34.1,24.3,29.97,SSW,202,0.0,8.0,67,0.00,,OVC034,0.02,VWS V14.01,2013-02-06 00:21:00,
2013-02-05 18:24:00,34.1,24.3,29.97,North,0,0.0,0.0,67,0.00,,OVC034,0.02,VWS V14.01,2013-02-06 00:24:00,
2013-02-05 18:26:00,34.1,24.3,29.97,North,0,0.0,4.8,67,0.00,,OVC034,0.02,VWS V14.01,2013-02-06 00:26:00,
2013-02-05 18:27:00,34.1,24.3,29.97,SSW,202,0.0,0.0,67,0.00,,OVC034,0.02,VWS V14.01,2013-02-06 00:27:00,
2013-02-05 18:30:00,34.1,24.3,29.97,SSW,202,0.0,0.0,67,0.00,,OVC034,0.02,VWS V14.01,2013-02-06 00:30:00,
2013-02-05 18:32:00,34.1,24.3,29.98,SSW,202,0.0,0.0,67,0.00,,OVC034,0.02,VWS V14.01,2013-02-06 00:32:00,
2013-02-05 18:34:00,34.1,24.3,29.98,NNW,338,10.6,10.6,67,0.00,,OVC034,0.02,VWS V14.01,2013-02-06 00:34:00,
2013-02-05 18:38:00,34.1,24.3,29.98,NNW,338,2.6,4.8,67,0.00,,OVC034,0.02,VWS V14.01,2013-02-06 00:38:00,
2013-02-05 18:39:00,34.1,24.3,29.98,NNW,338,2.6,2.6,67,0.00,,OVC034,0.02,VWS V14.01,2013-02-06 00:39:00,
2013-02-05 18:40:00,34.3,24.5,29.98,NNW,338,6.2,6.2,67,0.00,,OVC034,0.02,VWS V14.01,2013-02-06 00:40:00,
2013-02-05 18:41:00,34.1,24.3,29.98,North,0,0.0,0.0,67,0.00,,OVC034,0.02,VWS V14.01,2013-02-06 00:41:00,
2013-02-05 18:44:00,34.3,24.5,29.98,North,0,0.0,8.8,67,0.00,,OVC034,0.02,VWS V14.01,2013-02-06 00:44:00,
2013-02-05 18:45:00,34.1,24.3,29.98,North,0,0.0,0.0,67,0.00,,OVC034,0.02,VWS V14.01,2013-02-06 00:45:00,
2013-02-05 18:50:00,34.1,24.3,29.98,North,0,0.0,0.0,67,0.00,,OVC034,0.02,VWS V14.01,2013-02-06 00:50:00,
2013-02-05 18:51:00,34.1,24.3,29.98,NNW,338,5.8,5.8,67,0.00,,OVC034,0.02,VWS V14.01,2013-02-06 00:51:00,
2013-02-05 18:55:00,34.1,24.3,29.99,NNW,338,0.0,0.0,67,0.00,,OVC034,0.02,VWS V14.01,2013-02-06 00:55:00,
2013-02-05 18:56:00,34.1,24.3,29.99,SSW,202,0.0,0.0,67,0.00,,OVC034,0.02,VWS V14.01,2013-02-06 00:56:00,
2013-02-05 19:00:00,34.1,24.3,29.99,NNW,338,0.0,0.0,67,0.00,,OVC034,0.02,VWS V14.01,2013-02-06 01:00:00,
2013-02-05 19:01:00,34.3,24.5,29.99,NNW,338,0.0,0.0,67,0.00,,OVC034,0.02,VWS V14.01,2013-02-06 01:01:00,
2013-02-05 19:02:00,34.1,24.3,29.99,North,0,3.0,3.0,67,0.00,,OVC034,0.02,VWS V14.01,2013-02-06 01:02:00,
2013-02-05 19:05:00,34.3,24.5,29.99,NNW,338,5.2,5.2,67,0.00,,OVC034,0.02,VWS V14.01,2013-02-06 01:05:00,
2013-02-05 19:06:00,34.3,24.5,29.99,NNW,338,0.0,5.2,67,0.00,,OVC034,0.02,VWS V14.01,2013-02-06 01:06:00,
2013-02-05 19:10:00,34.1,24.3,30.00,NNW,338,0.0,0.0,67,0.00,,OVC034,0.02,VWS V14.01,2013-02-06 01:10:00,
2013-02-05 19:12:00,34.3,24.5,30.00,NNW,338,2.6,2.6,67,0.00,,OVC034,0.02,VWS V14.01,2013-02-06 01:12:00,
2013-02-05 19:14:00,34.1,24.3,30.00,NNW,338,0.0,2.6,67,0.00,,OVC034,0.02,VWS V14.01,2013-02-06 01:14:00,
2013-02-05 19:19:00,34.1,24.3,30.00,NNW,338,6.2,6.2,67,0.00,,OVC034,0.02,VWS V14.01,2013-02-06 01:19:00,
2013-02-05 19:20:00,34.1,24.3,30.00,NNW,338,0.0,6.2,67,0.00,,OVC034,0.02,VWS V14.01,2013-02-06 01:20:00,
2013-02-05 19:24:00,34.1,24.3,30.00,NNW,338,2.6,2.6,67,0.00,,OVC034,0.02,VWS V14.01,2013-02-06 01:24:00,
2013-02-05 19:27:00,33.9,24.1,30.00,NNW,338,0.0,1.6,67,0.00,,OVC034,0.02,VWS V14.01,2013-02-06 01:27:00,
2013-02-05 19:28:00,33.9,24.1,30.00,North,0,5.8,5.8,67,0.00,,OVC034,0.02,VWS V14.01,2013-02-06 01:28:00,
2013-02-05 19:33:00,33.9,24.1,30.00,NNE,22,5.2,10.6,67,0.00,,OVC034,0.02,VWS V14.01,2013-02-06 01:33:00,
2013-02-05 19:34:00,33.8,24.0,30.00,NE,45,4.8,10.6,67,0.00,,OVC034,0.02,VWS V14.01,2013-02-06 01:34:00,
2013-02-05 19:38:00,33.8,24.0,30.00,NNW,338,5.8,5.8,67,0.00,,OVC034,0.02,VWS V14.01,2013-02-06 01:38:00,
2013-02-05 19:40:00,33.6,23.5,30.00,NNW,338,8.4,9.8,66,0.00,,OVC034,0.02,VWS V14.01,2013-02-06 01:40:00,
2013-02-05 19:41:00,33.6,23.5,30.01,NNW,338,5.8,8.4,66,0.00,,OVC034,0.02,VWS V14.01,2013-02-06 01:41:00,
2013-02-05 19:42:00,33.6,23.5,30.01,NNW,338,12.4,12.4,66,0.00,,OVC034,0.02,VWS V14.01,2013-02-06 01:42:00,
2013-02-05 19:45:00,33.4,23.3,30.01,NNW,338,0.0,0.0,66,0.00,,OVC034,0.02,VWS V14.01,2013-02-06 01:45:00,
2013-02-05 19:47:00,33.4,23.3,30.01,NNW,338,7.6,7.6,66,0.00,,OVC034,0.02,VWS V14.01,2013-02-06 01:47:00,
2013-02-05 19:52:00,33.4,22.9,30.01,NNW,338,0.0,4.4,65,0.00,,OVC034,0.02,VWS V14.01,2013-02-06 01:52:00,
2013-02-05 19:55:00,33.2,22.7,30.02,NNW,338,1.6,9.2,65,0.00,,OVC034,0.02,VWS V14.01,2013-02-06 01:55:00,
2013-02-05 19:57:00,33.2,22.7,30.01,NNW,338,9.2,9.2,65,0.00,,OVC034,0.02,VWS V14.01,2013-02-06 01:57:00,
2013-02-05 20:00:00,33.2,22.7,30.01,North,0,0.0,5.2,65,0.00,,OVC034,0.02,VWS V14.01,2013-02-06 02:00:00,
2013-02-05 20:02:00,33.2,22.7,30.02,NNW,338,6.2,6.2,65,0.00,,OVC034,0.02,VWS V14.01,2013-02-06 02:02:00,
2013-02-05 20:06:00,33.2,22.4,30.02,North,0,6.2,7.6,64,0.00,,OVC034,0.02,VWS V14.01,2013-02-06 02:06:00,
2013-02-05 20:08:00,33.2,22.4,30.02,North,0,0.0,6.2,64,0.00,,OVC034,0.02,VWS V14.01,2013-02-06 02:08:00,
2013-02-05 20:12:00,33.0,22.2,30.02,NNW,338,0.0,0.0,64,0.00,,OVC034,0.02,VWS V14.01,2013-02-06 02:12:00,
2013-02-05 20:15:00,33.2,22.4,30.02,NNW,338,0.0,5.2,64,0.00,,OVC034,0.02,VWS V14.01,2013-02-06 02:15:00,
2013-02-05 20:18:00,33.0,21.8,30.02,NNW,338,0.0,7.0,63,0.00,,OVC034,0.02,VWS V14.01,2013-02-06 02:18:00,
2013-02-05 20:21:00,33.0,21.8,30.02,NNW,338,0.0,2.6,63,0.00,,OVC034,0.02,VWS V14.01,2013-02-06 02:21:00,
2013-02-05 20:23:00,33.0,21.8,30.02,North,0,0.0,0.0,63,0.00,,OVC034,0.02,VWS V14.01,2013-02-06 02:23:00,
2013-02-05 20:27:00,32.9,21.7,30.02,North,0,0.0,0.0,63,0.00,,OVC034,0.02,VWS V14.01,2013-02-06 02:27:00,
2013-02-05 20:28:00,32.9,21.7,30.02,NNW,338,0.0,0.0,63,0.00,,OVC034,0.02,VWS V14.01,2013-02-06 02:28:00,
2013-02-05 20:31:00,32.9,21.7,30.03,NNW,338,8.4,8.4,63,0.00,,OVC034,0.02,VWS V14.01,2013-02-06 02:31:00,
2013-02-05 20:34:00,32.9,21.7,30.02,NNW,338,0.0,9.2,63,0.00,,OVC034,0.02,VWS V14.01,2013-02-06 02:34:00,
2013-02-05 20:35:00,32.9,21.7,30.02,NNW,338,0.0,0.0,63,0.00,,OVC034,0.02,VWS V14.01,2013-02-06 02:35:00,
2013-02-05 20:36:00,32.9,21.7,30.02,North,0,0.0,0.0,63,0.00,,OVC034,0.02,VWS V14.01,2013-02-06 02:36:00,
2013-02-05 20:39:00,32.9,21.7,30.03,NNW,338,0.0,0.0,63,0.00,,OVC034,0.02,VWS V14.01,2013-02-06 02:39:00,
2013-02-05 20:40:00,32.9,21.3,30.02,North,0,0.0,3.0,62,0.00,,OVC032,0.02,VWS V14.01,2013-02-06 02:40:00,
2013-02-05 20:42:00,32.9,21.3,30.02,NNW,338,2.6,2.6,62,0.00,,OVC032,0.02,VWS V14.01,2013-02-06 02:42:00,
2013-02-05 20:46:00,32.9,21.3,30.02,North,0,0.0,0.0,62,0.00,,OVC032,0.02,VWS V14.01,2013-02-06 02:46:00,
2013-02-05 20:47:00,32.9,21.3,30.02,North,0,0.0,0.0,62,0.00,,OVC032,0.02,VWS V14.01,2013-02-06 02:47:00,
2013-02-05 20:48:00,32.7,21.1,30.02,NNW,338,0.0,0.0,62,0.00,,OVC032,0.02,VWS V14.01,2013-02-06 02:48:00,
2013-02-05 20:52:00,32.7,21.1,30.03,North,0,0.0,0.0,62,0.00,,OVC032,0.02,VWS V14.01,2013-02-06 02:52:00,
2013-02-05 20:53:00,32.7,21.1,30.03,NNW,338,0.0,0.0,62,0.00,,OVC032,0.02,VWS V14.01,2013-02-06 02:53:00,
2013-02-05 20:54:00,32.7,21.1,30.03,NNW,338,6.2,6.2,62,0.00,,OVC032,0.02,VWS V14.01,2013-02-06 02:54:00,
2013-02-05 20:57:00,32.7,21.1,30.03,NNW,338,0.0,0.0,62,0.00,,OVC032,0.02,VWS V14.01,2013-02-06 02:57:00,
2013-02-05 20:58:00,32.7,21.1,30.03,NNW,338,0.0,0.0,62,0.00,,OVC032,0.02,VWS V14.01,2013-02-06 02:58:00,
2013-02-05 21:00:00,32.7,21.1,30.03,North,0,0.0,0.0,62,0.00,,OVC032,0.02,VWS V14.01,2013-02-06 03:00:00,
2013-02-05 21:04:00,32.5,20.9,30.03,North,0,0.0,0.0,62,0.00,,OVC032,0.02,VWS V14.01,2013-02-06 03:04:00,
2013-02-05 21:06:00,32.5,20.9,30.03,North,0,0.0,0.0,62,0.00,,OVC032,0.02,VWS V14.01,2013-02-06 03:06:00,
2013-02-05 21:09:00,32.3,20.8,30.03,North,0,0.0,0.0,62,0.00,,OVC032,0.02,VWS V14.01,2013-02-06 03:09:00,
2013-02-05 21:10:00,32.3,20.8,30.04,NNW,338,0.0,0.0,62,0.00,,OVC032,0.02,VWS V14.01,2013-02-06 03:10:00,
2013-02-05 21:14:00,32.3,20.8,30.04,North,0,0.0,0.0,62,0.00,,OVC032,0.02,VWS V14.01,2013-02-06 03:14:00,
2013-02-05 21:16:00,32.3,20.8,30.04,North,0,0.0,0.0,62,0.00,,OVC032,0.02,VWS V14.01,2013-02-06 03:16:00,
2013-02-05 21:21:00,32.1,20.6,30.03,North,0,0.0,0.0,62,0.00,,OVC032,0.02,VWS V14.01,2013-02-06 03:21:00,
2013-02-05 21:23:00,32.1,20.6,30.04,North,0,0.0,0.0,62,0.00,,OVC032,0.02,VWS V14.01,2013-02-06 03:23:00,
2013-02-05 21:26:00,32.1,20.6,30.04,North,0,0.0,0.0,62,0.00,,OVC032,0.02,VWS V14.01,2013-02-06 03:26:00,
2013-02-05 21:28:00,32.1,20.6,30.04,North,0,0.0,0.0,62,0.00,,OVC032,0.02,VWS V14.01,2013-02-06 03:28:00,
2013-02-05 21:30:00,32.0,20.5,30.04,North,0,0.0,0.0,62,0.00,,OVC032,0.02,VWS V14.01,2013-02-06 03:30:00,
2013-02-05 21:34:00,31.6,20.1,30.04,North,0,0.0,0.0,62,0.00,,OVC032,0.02,VWS V14.01,2013-02-06 03:34:00,
2013-02-05 21:37:00,31.6,20.1,30.04,North,0,0.0,0.0,62,0.00,,OVC032,0.02,VWS V14.01,2013-02-06 03:37:00,
2013-02-05 21:39:00,31.4,19.9,30.04,North,0,0.0,0.0,62,0.00,,OVC032,0.02,VWS V14.01,2013-02-06 03:39:00,
2013-02-05 21:43:00,31.4,20.3,30.05,North,0,0.0,0.0,63,0.00,,OVC030,0.02,VWS V14.01,2013-02-06 03:43:00,
2013-02-05 21:46:00,31.2,20.1,30.05,North,0,0.0,0.0,63,0.00,,OVC030,0.02,VWS V14.01,2013-02-06 03:46:00,
2013-02-05 21:47:00,31.2,20.1,30.05,North,0,0.0,0.0,63,0.00,,OVC030,0.02,VWS V14.01,2013-02-06 03:47:00,
2013-02-05 21:50:00,31.1,20.0,30.05,North,0,0.0,0.0,63,0.00,,OVC030,0.02,VWS V14.01,2013-02-06 03:50:00,
2013-02-05 21:52:00,31.1,20.0,30.05,North,0,0.0,0.0,63,0.00,,OVC030,0.02,VWS V14.01,2013-02-06 03:52:00,
2013-02-05 21:53:00,31.1,20.0,30.06,North,0,0.0,0.0,63,0.00,,OVC030,0.02,VWS V14.01,2013-02-06 03:53:00,
2013-02-05 21:54:00,30.9,20.2,30.06,North,0,0.0,0.0,64,0.00,,OVC030,0.02,VWS V14.01,2013-02-06 03:54:00,
2013-02-05 21:55:00,31.1,20.4,30.06,North,0,0.0,0.0,64,0.00,,OVC030,0.02,VWS V14.01,2013-02-06 03:55:00,
2013-02-05 21:59:00,31.1,20.4,30.06,North,0,0.0,0.0,64,0.00,,OVC030,0.02,VWS V14.01,2013-02-06 03:59:00,
2013-02-05 22:02:00,30.9,20.2,30.06,North,0,0.0,0.0,64,0.00,,OVC030,0.02,VWS V14.01,2013-02-06 04:02:00,
2013-02-05 22:04:00,30.9,20.5,30.06,North,0,0.0,0.0,65,0.00,,OVC030,0.02,VWS V14.01,2013-02-06 04:04:00,
2013-02-05 22:06:00,30.9,20.5,30.06,North,0,0.0,0.0,65,0.00,,OVC030,0.02,VWS V14.01,2013-02-06 04:06:00,
2013-02-05 22:08:00,30.9,20.5,30.06,North,0,4.4,4.4,65,0.00,,OVC030,0.02,VWS V14.01,2013-02-06 04:08:00,
2013-02-05 22:11:00,30.9,20.5,30.06,North,0,0.0,0.0,65,0.00,,OVC030,0.02,VWS V14.01,2013-02-06 04:11:00,
2013-02-05 22:13:00,31.1,20.7,30.06,North,0,0.0,0.0,65,0.00,,OVC030,0.02,VWS V14.01,2013-02-06 04:13:00,
2013-02-05 22:15:00,31.1,20.7,30.06,NNW,338,0.0,0.0,65,0.00,,OVC030,0.02,VWS V14.01,2013-02-06 04:15:00,
2013-02-05 22:17:00,31.1,21.1,30.06,NNW,338,0.0,0.0,66,0.00,,OVC030,0.02,VWS V14.01,2013-02-06 04:17:00,
2013-02-05 22:18:00,31.1,21.1,30.06,North,0,0.0,0.0,66,0.00,,OVC030,0.02,VWS V14.01,2013-02-06 04:18:00,
2013-02-05 22:20:00,31.1,21.1,30.06,North,0,0.0,0.0,66,0.00,,OVC030,0.02,VWS V14.01,2013-02-06 04:20:00,
2013-02-05 22:25:00,31.2,21.2,30.06,North,0,0.0,0.0,66,0.00,,OVC030,0.02,VWS V14.01,2013-02-06 04:25:00,
2013-02-05 22:26:00,31.1,21.1,30.06,NNW,338,0.0,0.0,66,0.00,,OVC030,0.02,VWS V14.01,2013-02-06 04:26:00,
2013-02-05 22:28:00,31.1,21.1,30.06,NNW,338,0.0,0.0,66,0.00,,OVC030,0.02,VWS V14.01,2013-02-06 04:28:00,
2013-02-05 22:29:00,31.1,21.1,30.06,North,0,0.0,0.0,66,0.00,,OVC030,0.02,VWS V14.01,2013-02-06 04:29:00,
2013-02-05 22:33:00,31.1,21.1,30.06,North,0,0.0,0.0,66,0.00,,OVC030,0.02,VWS V14.01,2013-02-06 04:33:00,
2013-02-05 22:34:00,31.1,21.1,30.06,North,0,0.0,0.0,66,0.00,,OVC030,0.02,VWS V14.01,2013-02-06 04:34:00,
2013-02-05 22:37:00,31.1,21.1,30.06,NNW,338,0.0,0.0,66,0.00,,OVC030,0.02,VWS V14.01,2013-02-06 04:37:00,
2013-02-05 22:39:00,31.1,21.1,30.07,NNW,338,0.0,0.0,66,0.00,,OVC030,0.02,VWS V14.01,2013-02-06 04:39:00,
2013-02-05 22:40:00,31.1,21.1,30.07,NNW,338,0.0,0.0,66,0.00,,BKN030,0.02,VWS V14.01,2013-02-06 04:40:00,
2013-02-05 22:44:00,31.1,21.1,30.07,NNW,338,0.0,0.0,66,0.00,,BKN030,0.02,VWS V14.01,2013-02-06 04:44:00,
2013-02-05 22:45:00,31.1,21.1,30.07,NNW,338,0.0,0.0,66,0.00,,BKN030,0.02,VWS V14.01,2013-02-06 04:45:00,
2013-02-05 22:46:00,31.1,21.1,30.07,NNW,338,0.0,0.0,66,0.00,,BKN030,0.02,VWS V14.01,2013-02-06 04:46:00,
2013-02-05 22:51:00,31.1,21.4,30.08,North,0,0.0,0.0,67,0.00,,BKN030,0.02,VWS V14.01,2013-02-06 04:51:00,
2013-02-05 22:53:00,31.1,21.4,30.07,NNW,338,4.8,4.8,67,0.00,,BKN030,0.02,VWS V14.01,2013-02-06 04:53:00,
2013-02-05 22:54:00,31.1,21.4,30.07,NNW,338,0.0,0.0,67,0.00,,BKN030,0.02,VWS V14.01,2013-02-06 04:54:00,
2013-02-05 22:56:00,31.1,21.4,30.07,NNW,338,0.0,0.0,67,0.00,,BKN030,0.02,VWS V14.01,2013-02-06 04:56:00,
2013-02-05 22:58:00,31.1,21.4,30.07,NNW,338,0.0,0.0,67,0.00,,BKN030,0.02,VWS V14.01,2013-02-06 04:58:00,
2013-02-05 23:00:00,31.1,21.4,30.08,NNW,338,0.0,0.0,67,0.00,,BKN030,0.02,VWS V14.01,2013-02-06 05:00:00,
2013-02-05 23:02:00,31.1,21.4,30.08,NNW,338,0.0,0.0,67,0.00,,BKN030,0.02,VWS V14.01,2013-02-06 05:02:00,
2013-02-05 23:05:00,30.9,21.2,30.08,North,0,0.0,0.0,67,0.00,,BKN030,0.02,VWS V14.01,2013-02-06 05:05:00,
2013-02-05 23:08:00,30.9,21.2,30.08,NNW,338,0.0,0.0,67,0.00,,BKN030,0.02,VWS V14.01,2013-02-06 05:08:00,
2013-02-05 23:09:00,30.9,21.2,30.08,NNW,338,0.0,0.0,67,0.00,,BKN030,0.02,VWS V14.01,2013-02-06 05:09:00,
2013-02-05 23:10:00,30.9,21.2,30.08,NNW,338,0.0,0.0,67,0.00,,BKN030,0.02,VWS V14.01,2013-02-06 05:10:00,
2013-02-05 23:14:00,30.9,21.2,30.08,NNW,338,0.0,0.0,67,0.00,,BKN030,0.02,VWS V14.01,2013-02-06 05:14:00,
2013-02-05 23:15:00,30.7,21.1,30.08,North,0,0.0,0.0,67,0.00,,BKN030,0.02,VWS V14.01,2013-02-06 05:15:00,
2013-02-05 23:18:00,30.9,21.2,30.09,NNW,338,0.0,0.0,67,0.00,,BKN030,0.02,VWS V14.01,2013-02-06 05:18:00,
2013-02-05 23:20:00,30.7,21.1,30.09,NNW,338,0.0,0.0,67,0.00,,BKN030,0.02,VWS V14.01,2013-02-06 05:20:00,
2013-02-05 23:22:00,30.7,21.1,30.09,NNW,338,0.0,0.0,67,0.00,,BKN030,0.02,VWS V14.01,2013-02-06 05:22:00,
2013-02-05 23:23:00,30.7,21.1,30.09,North,0,0.0,0.0,67,0.00,,BKN030,0.02,VWS V14.01,2013-02-06 05:23:00,
2013-02-05 23:24:00,30.7,21.1,30.09,North,0,0.0,0.0,67,0.00,,BKN030,0.02,VWS V14.01,2013-02-06 05:24:00,
2013-02-05 23:26:00,30.5,20.9,30.09,NNW,338,5.8,5.8,67,0.00,,BKN030,0.02,VWS V14.01,2013-02-06 05:26:00,
2013-02-05 23:28:00,30.5,20.5,30.09,NNW,338,0.0,0.0,66,0.00,,BKN030,0.02,VWS V14.01,2013-02-06 05:28:00,
2013-02-05 23:29:00,30.5,20.5,30.09,NNW,338,0.0,0.0,66,0.00,,BKN030,0.02,VWS V14.01,2013-02-06 05:29:00,
2013-02-05 23:30:00,30.5,20.5,30.09,NNW,338,4.0,4.0,66,0.00,,BKN030,0.02,VWS V14.01,2013-02-06 05:30:00,
2013-02-05 23:32:00,30.5,20.5,30.09,NNW,338,0.0,4.0,66,0.00,,BKN030,0.02,VWS V14.01,2013-02-06 05:32:00,
2013-02-05 23:34:00,30.5,20.5,30.09,NNW,338,0.0,0.0,66,0.00,,BKN030,0.02,VWS V14.01,2013-02-06 05:34:00,
2013-02-05 23:35:00,30.5,20.5,30.09,NNW,338,0.0,0.0,66,0.00,,BKN030,0.02,VWS V14.01,2013-02-06 05:35:00,
2013-02-05 23:37:00,30.5,20.5,30.09,NNW,338,0.0,0.8,66,0.00,,BKN030,0.02,VWS V14.01,2013-02-06 05:37:00,
2013-02-05 23:38:00,30.5,20.5,30.10,NNW,338,2.2,2.2,66,0.00,,BKN030,0.02,VWS V14.01,2013-02-06 05:38:00,
2013-02-05 23:40:00,30.5,20.5,30.10,North,0,0.0,0.0,66,0.00,,OVC030,0.02,VWS V14.01,2013-02-06 05:40:00,
2013-02-05 23:41:00,30.5,20.5,30.10,North,0,0.0,0.0,66,0.00,,OVC030,0.02,VWS V14.01,2013-02-06 05:41:00,
2013-02-05 23:44:00,30.3,20.3,30.10,NNW,338,5.2,5.2,66,0.00,,OVC030,0.02,VWS V14.01,2013-02-06 05:44:00,
2013-02-05 23:46:00,30.3,20.3,30.10,NNW,338,6.2,6.2,66,0.00,,OVC030,0.02,VWS V14.01,2013-02-06 05:46:00,
2013-02-05 23:47:00,30.3,20.3,30.10,North,0,0.0,6.2,66,0.00,,OVC030,0.02,VWS V14.01,2013-02-06 05:47:00,
2013-02-05 23:48:00,30.3,20.3,30.09,North,0,0.0,6.2,66,0.00,,OVC030,0.02,VWS V14.01,2013-02-06 05:48:00,
2013-02-05 23:51:00,30.3,20.3,30.09,NNW,338,1.2,1.2,66,0.00,,OVC030,0.02,VWS V14.01,2013-02-06 05:51:00,
2013-02-05 23:53:00,30.0,19.7,30.09,NNW,338,0.0,0.0,65,0.00,,OVC030,0.02,VWS V14.01,2013-02-06 05:53:00,
2013-02-05 23:55:00,30.0,19.7,30.09,NNW,338,0.0,3.0,65,0.00,,OVC030,0.02,VWS V14.01,2013-02-06 05:55:00,
2013-02-05 23:56:00,29.8,19.5,30.09,NNW,338,0.0,3.0,65,0.00,,OVC030,0.02,VWS V14.01,2013-02-06 05:56:00,
2013-02-05 23:58:00,29.8,19.5,30.09,North,0,0.0,0.0,65,0.00,,OVC030,0.02,VWS V14.01,2013-02-06 05:58:00,
2013-02-05 23:59:00,29.6,19.3,30.09,NNW,338,0.0,0.0,65,0.00,,OVC030,0.02,VWS V14.01,2013-02-06 05:59:00,